<?xml version="1.0" encoding="UTF-8" standalone="no" ?>
<gpx xmlns="http://www.topografix.com/GPX/1/1" xmlns:xsi="http://www.w3.org/2001/XMLSchema-instance" xsi:schemaLocation="http://www.topografix.com/GPX/1/1 http://www.topografix.com/GPX/1/1/gpx.xsd" version="1.1" creator="VisuGPX - https://www.visugpx.com">
  <metadata>
    <name>Gare du Petit Jouy-les-Loges à la gare de Jouy-en-Josas (78 - Yvelines)</name>
    <desc><![CDATA[Formation balisage d'une partie du GR11, du GR22, du PR101 et du PR102]]></desc>
  </metadata>
  <wpt lat="48.77085" lon="2.14729">
    <ele>103.5</ele>
    <name><![CDATA[1st position]]></name>
    <desc><![CDATA[Indication de direction du GR11 au carrefour]]></desc>
    <type><![CDATA[ville]]></type>
  </wpt>
  <wpt lat="48.76452" lon="2.16774">
    <ele>88.1</ele>
    <name><![CDATA[2nd position]]></name>
    <desc><![CDATA[Balisage de l'accès gare]]></desc>
    <type><![CDATA[gare]]></type>
  </wpt>
  <wpt lat="48.76412" lon="2.16404">
    <ele>89.3</ele>
    <name><![CDATA[3rd position]]></name>
    <desc><![CDATA[Ajout d'une marque de continuité avant le pont vers Jouy-en-Logas]]></desc>
  </wpt>
  <wpt lat="48.76693" lon="2.15564">
    <ele>96.3</ele>
    <name><![CDATA[4th position]]></name>
    <desc><![CDATA[Ajout de 2 marques de continuité de part et d'autre de la rue]]></desc>
  </wpt>
  <trk>
    <name><![CDATA[Tracé réel (2022-03-19)]]></name>
    <extensions>
      <line xmlns="http://www.topografix.com/GPX/gpx_style/0/2">
        <color>0000FF</color>
        <width>4</width>
      </line>
    </extensions>
    <trkseg>
      <trkpt lat="48.76974" lon="2.14509">
        <ele>89.3</ele>
        <time>2022-03-19T09:31:35.000+01:00</time>
      </trkpt>
      <trkpt lat="48.76974" lon="2.14501">
        <ele>97.2</ele>
        <time>2022-03-19T09:32:00.000+01:00</time>
      </trkpt>
      <trkpt lat="48.76972" lon="2.145">
        <ele>93.2</ele>
        <time>2022-03-19T09:32:25.000+01:00</time>
      </trkpt>
      <trkpt lat="48.76978" lon="2.14498">
        <ele>98.3</ele>
        <time>2022-03-19T09:33:00.000+01:00</time>
      </trkpt>
      <trkpt lat="48.76975" lon="2.14497">
        <ele>89.3</ele>
        <time>2022-03-19T09:33:55.000+01:00</time>
      </trkpt>
      <trkpt lat="48.76975" lon="2.14502">
        <ele>92.2</ele>
        <time>2022-03-19T09:34:30.000+01:00</time>
      </trkpt>
      <trkpt lat="48.76977" lon="2.14501">
        <ele>94.4</ele>
        <time>2022-03-19T09:35:25.000+01:00</time>
      </trkpt>
      <trkpt lat="48.76975" lon="2.14498">
        <ele>96</ele>
        <time>2022-03-19T09:36:15.000+01:00</time>
      </trkpt>
      <trkpt lat="48.76979" lon="2.14482">
        <ele>96.4</ele>
        <time>2022-03-19T09:36:35.000+01:00</time>
      </trkpt>
      <trkpt lat="48.76983" lon="2.14466">
        <ele>97.7</ele>
        <time>2022-03-19T09:36:50.000+01:00</time>
      </trkpt>
      <trkpt lat="48.76989" lon="2.14455">
        <ele>99.2</ele>
        <time>2022-03-19T09:37:00.000+01:00</time>
      </trkpt>
      <trkpt lat="48.76993" lon="2.14443">
        <ele>101.5</ele>
        <time>2022-03-19T09:37:10.000+01:00</time>
      </trkpt>
      <trkpt lat="48.76996" lon="2.14428">
        <ele>103.1</ele>
        <time>2022-03-19T09:37:25.000+01:00</time>
      </trkpt>
      <trkpt lat="48.77" lon="2.14413">
        <ele>102.5</ele>
        <time>2022-03-19T09:37:40.000+01:00</time>
      </trkpt>
      <trkpt lat="48.77005" lon="2.14391">
        <ele>102.1</ele>
        <time>2022-03-19T09:37:50.000+01:00</time>
      </trkpt>
      <trkpt lat="48.7701" lon="2.14376">
        <ele>104.6</ele>
        <time>2022-03-19T09:38:00.000+01:00</time>
      </trkpt>
      <trkpt lat="48.77018" lon="2.14366">
        <ele>106.3</ele>
        <time>2022-03-19T09:38:10.000+01:00</time>
      </trkpt>
      <trkpt lat="48.77027" lon="2.14355">
        <ele>107.1</ele>
        <time>2022-03-19T09:38:20.000+01:00</time>
      </trkpt>
      <trkpt lat="48.77032" lon="2.14333">
        <ele>106.9</ele>
        <time>2022-03-19T09:38:30.000+01:00</time>
      </trkpt>
      <trkpt lat="48.77038" lon="2.1432">
        <ele>107.1</ele>
        <time>2022-03-19T09:38:35.000+01:00</time>
      </trkpt>
      <trkpt lat="48.77047" lon="2.14304">
        <ele>105.2</ele>
        <time>2022-03-19T09:38:45.000+01:00</time>
      </trkpt>
      <trkpt lat="48.7705" lon="2.14296">
        <ele>108.3</ele>
        <time>2022-03-19T09:39:00.000+01:00</time>
      </trkpt>
      <trkpt lat="48.7706" lon="2.14277">
        <ele>111</ele>
        <time>2022-03-19T09:39:15.000+01:00</time>
      </trkpt>
      <trkpt lat="48.77065" lon="2.14258">
        <ele>113.3</ele>
        <time>2022-03-19T09:39:25.000+01:00</time>
      </trkpt>
      <trkpt lat="48.7707" lon="2.14246">
        <ele>112.4</ele>
        <time>2022-03-19T09:39:35.000+01:00</time>
      </trkpt>
      <trkpt lat="48.77075" lon="2.14232">
        <ele>113.4</ele>
        <time>2022-03-19T09:39:45.000+01:00</time>
      </trkpt>
      <trkpt lat="48.77082" lon="2.14224">
        <ele>112.6</ele>
        <time>2022-03-19T09:39:55.000+01:00</time>
      </trkpt>
      <trkpt lat="48.77086" lon="2.14211">
        <ele>113.4</ele>
        <time>2022-03-19T09:40:05.000+01:00</time>
      </trkpt>
      <trkpt lat="48.77093" lon="2.14198">
        <ele>114.2</ele>
        <time>2022-03-19T09:40:15.000+01:00</time>
      </trkpt>
      <trkpt lat="48.77097" lon="2.1418">
        <ele>114.8</ele>
        <time>2022-03-19T09:40:30.000+01:00</time>
      </trkpt>
      <trkpt lat="48.77103" lon="2.14164">
        <ele>114.5</ele>
        <time>2022-03-19T09:40:40.000+01:00</time>
      </trkpt>
      <trkpt lat="48.77108" lon="2.14152">
        <ele>113.1</ele>
        <time>2022-03-19T09:40:50.000+01:00</time>
      </trkpt>
      <trkpt lat="48.77114" lon="2.14139">
        <ele>111.4</ele>
        <time>2022-03-19T09:41:00.000+01:00</time>
      </trkpt>
      <trkpt lat="48.77121" lon="2.14125">
        <ele>104.2</ele>
        <time>2022-03-19T09:41:05.000+01:00</time>
      </trkpt>
      <trkpt lat="48.77123" lon="2.1411">
        <ele>100.7</ele>
        <time>2022-03-19T09:41:30.000+01:00</time>
      </trkpt>
      <trkpt lat="48.77127" lon="2.14109">
        <ele>100.7</ele>
        <time>2022-03-19T09:42:00.000+01:00</time>
      </trkpt>
      <trkpt lat="48.77127" lon="2.14108">
        <ele>102.3</ele>
        <time>2022-03-19T09:42:40.000+01:00</time>
      </trkpt>
      <trkpt lat="48.77127" lon="2.14111">
        <ele>97.8</ele>
        <time>2022-03-19T09:43:05.000+01:00</time>
      </trkpt>
      <trkpt lat="48.77118" lon="2.14108">
        <ele>102.8</ele>
        <time>2022-03-19T09:43:20.000+01:00</time>
      </trkpt>
      <trkpt lat="48.77114" lon="2.14109">
        <ele>104.9</ele>
        <time>2022-03-19T09:44:10.000+01:00</time>
      </trkpt>
      <trkpt lat="48.77114" lon="2.14108">
        <ele>106.6</ele>
        <time>2022-03-19T09:45:05.000+01:00</time>
      </trkpt>
      <trkpt lat="48.77121" lon="2.14109">
        <ele>109.2</ele>
        <time>2022-03-19T09:45:40.000+01:00</time>
      </trkpt>
      <trkpt lat="48.7713" lon="2.14104">
        <ele>108.5</ele>
        <time>2022-03-19T09:45:50.000+01:00</time>
      </trkpt>
      <trkpt lat="48.77137" lon="2.14091">
        <ele>109.7</ele>
        <time>2022-03-19T09:46:05.000+01:00</time>
      </trkpt>
      <trkpt lat="48.77142" lon="2.14091">
        <ele>108.6</ele>
        <time>2022-03-19T09:46:25.000+01:00</time>
      </trkpt>
      <trkpt lat="48.77142" lon="2.14102">
        <ele>103.9</ele>
        <time>2022-03-19T09:46:45.000+01:00</time>
      </trkpt>
      <trkpt lat="48.77144" lon="2.14102">
        <ele>102.6</ele>
        <time>2022-03-19T09:47:00.000+01:00</time>
      </trkpt>
      <trkpt lat="48.77135" lon="2.14111">
        <ele>103.5</ele>
        <time>2022-03-19T09:47:20.000+01:00</time>
      </trkpt>
      <trkpt lat="48.77126" lon="2.1412">
        <ele>104.2</ele>
        <time>2022-03-19T09:47:25.000+01:00</time>
      </trkpt>
      <trkpt lat="48.77133" lon="2.1412">
        <ele>111.6</ele>
        <time>2022-03-19T09:47:40.000+01:00</time>
      </trkpt>
      <trkpt lat="48.77152" lon="2.14111">
        <ele>113</ele>
        <time>2022-03-19T09:47:50.000+01:00</time>
      </trkpt>
      <trkpt lat="48.77164" lon="2.1411">
        <ele>114.1</ele>
        <time>2022-03-19T09:48:00.000+01:00</time>
      </trkpt>
      <trkpt lat="48.7717" lon="2.14113">
        <ele>108.8</ele>
        <time>2022-03-19T09:48:15.000+01:00</time>
      </trkpt>
      <trkpt lat="48.77174" lon="2.14109">
        <ele>106.5</ele>
        <time>2022-03-19T09:48:50.000+01:00</time>
      </trkpt>
      <trkpt lat="48.77173" lon="2.14117">
        <ele>102.9</ele>
        <time>2022-03-19T09:49:05.000+01:00</time>
      </trkpt>
      <trkpt lat="48.77174" lon="2.14117">
        <ele>102.6</ele>
        <time>2022-03-19T09:49:25.000+01:00</time>
      </trkpt>
      <trkpt lat="48.77184" lon="2.14114">
        <ele>103</ele>
        <time>2022-03-19T09:49:35.000+01:00</time>
      </trkpt>
      <trkpt lat="48.77193" lon="2.14101">
        <ele>101.7</ele>
        <time>2022-03-19T09:49:45.000+01:00</time>
      </trkpt>
      <trkpt lat="48.77196" lon="2.14088">
        <ele>100.4</ele>
        <time>2022-03-19T09:50:00.000+01:00</time>
      </trkpt>
      <trkpt lat="48.77193" lon="2.14093">
        <ele>101.7</ele>
        <time>2022-03-19T09:50:20.000+01:00</time>
      </trkpt>
      <trkpt lat="48.77181" lon="2.14096">
        <ele>102.2</ele>
        <time>2022-03-19T09:50:35.000+01:00</time>
      </trkpt>
      <trkpt lat="48.77172" lon="2.141">
        <ele>107.4</ele>
        <time>2022-03-19T09:50:50.000+01:00</time>
      </trkpt>
      <trkpt lat="48.77166" lon="2.14115">
        <ele>106.3</ele>
        <time>2022-03-19T09:51:00.000+01:00</time>
      </trkpt>
      <trkpt lat="48.77163" lon="2.1413">
        <ele>108.5</ele>
        <time>2022-03-19T09:51:15.000+01:00</time>
      </trkpt>
      <trkpt lat="48.77163" lon="2.14133">
        <ele>105.5</ele>
        <time>2022-03-19T09:51:30.000+01:00</time>
      </trkpt>
      <trkpt lat="48.77171" lon="2.14135">
        <ele>105.1</ele>
        <time>2022-03-19T09:51:45.000+01:00</time>
      </trkpt>
      <trkpt lat="48.77163" lon="2.14138">
        <ele>108</ele>
        <time>2022-03-19T09:52:10.000+01:00</time>
      </trkpt>
      <trkpt lat="48.77155" lon="2.14143">
        <ele>114.5</ele>
        <time>2022-03-19T09:52:20.000+01:00</time>
      </trkpt>
      <trkpt lat="48.77162" lon="2.14149">
        <ele>118.6</ele>
        <time>2022-03-19T09:52:30.000+01:00</time>
      </trkpt>
      <trkpt lat="48.77168" lon="2.14141">
        <ele>113.3</ele>
        <time>2022-03-19T09:52:50.000+01:00</time>
      </trkpt>
      <trkpt lat="48.77171" lon="2.14138">
        <ele>112.2</ele>
        <time>2022-03-19T09:53:10.000+01:00</time>
      </trkpt>
      <trkpt lat="48.77162" lon="2.14145">
        <ele>113</ele>
        <time>2022-03-19T09:53:25.000+01:00</time>
      </trkpt>
      <trkpt lat="48.7715" lon="2.14152">
        <ele>113.9</ele>
        <time>2022-03-19T09:53:35.000+01:00</time>
      </trkpt>
      <trkpt lat="48.77148" lon="2.14174">
        <ele>113.2</ele>
        <time>2022-03-19T09:53:45.000+01:00</time>
      </trkpt>
      <trkpt lat="48.7714" lon="2.14189">
        <ele>115.6</ele>
        <time>2022-03-19T09:53:55.000+01:00</time>
      </trkpt>
      <trkpt lat="48.77138" lon="2.14203">
        <ele>120.7</ele>
        <time>2022-03-19T09:54:05.000+01:00</time>
      </trkpt>
      <trkpt lat="48.77132" lon="2.14218">
        <ele>122.6</ele>
        <time>2022-03-19T09:54:15.000+01:00</time>
      </trkpt>
      <trkpt lat="48.77126" lon="2.14233">
        <ele>126.1</ele>
        <time>2022-03-19T09:54:25.000+01:00</time>
      </trkpt>
      <trkpt lat="48.77126" lon="2.14251">
        <ele>121.9</ele>
        <time>2022-03-19T09:54:35.000+01:00</time>
      </trkpt>
      <trkpt lat="48.77122" lon="2.14264">
        <ele>117.1</ele>
        <time>2022-03-19T09:55:10.000+01:00</time>
      </trkpt>
      <trkpt lat="48.77117" lon="2.14277">
        <ele>117.2</ele>
        <time>2022-03-19T09:55:20.000+01:00</time>
      </trkpt>
      <trkpt lat="48.7711" lon="2.14288">
        <ele>121.6</ele>
        <time>2022-03-19T09:55:35.000+01:00</time>
      </trkpt>
      <trkpt lat="48.77105" lon="2.14304">
        <ele>126.8</ele>
        <time>2022-03-19T09:55:50.000+01:00</time>
      </trkpt>
      <trkpt lat="48.77102" lon="2.14321">
        <ele>128.9</ele>
        <time>2022-03-19T09:56:05.000+01:00</time>
      </trkpt>
      <trkpt lat="48.77094" lon="2.14341">
        <ele>127.1</ele>
        <time>2022-03-19T09:56:15.000+01:00</time>
      </trkpt>
      <trkpt lat="48.77091" lon="2.1436">
        <ele>125.8</ele>
        <time>2022-03-19T09:56:25.000+01:00</time>
      </trkpt>
      <trkpt lat="48.77085" lon="2.14372">
        <ele>126.1</ele>
        <time>2022-03-19T09:56:30.000+01:00</time>
      </trkpt>
      <trkpt lat="48.77086" lon="2.14396">
        <ele>124.4</ele>
        <time>2022-03-19T09:56:40.000+01:00</time>
      </trkpt>
      <trkpt lat="48.77081" lon="2.1441">
        <ele>122.9</ele>
        <time>2022-03-19T09:56:50.000+01:00</time>
      </trkpt>
      <trkpt lat="48.77076" lon="2.14432">
        <ele>125</ele>
        <time>2022-03-19T09:57:00.000+01:00</time>
      </trkpt>
      <trkpt lat="48.77074" lon="2.14453">
        <ele>125.6</ele>
        <time>2022-03-19T09:57:10.000+01:00</time>
      </trkpt>
      <trkpt lat="48.77074" lon="2.14473">
        <ele>128.1</ele>
        <time>2022-03-19T09:57:20.000+01:00</time>
      </trkpt>
      <trkpt lat="48.77072" lon="2.14489">
        <ele>128.2</ele>
        <time>2022-03-19T09:57:30.000+01:00</time>
      </trkpt>
      <trkpt lat="48.77068" lon="2.14511">
        <ele>120.6</ele>
        <time>2022-03-19T09:57:40.000+01:00</time>
      </trkpt>
      <trkpt lat="48.77067" lon="2.14532">
        <ele>115.8</ele>
        <time>2022-03-19T09:57:50.000+01:00</time>
      </trkpt>
      <trkpt lat="48.77069" lon="2.14547">
        <ele>113.9</ele>
        <time>2022-03-19T09:58:05.000+01:00</time>
      </trkpt>
      <trkpt lat="48.77078" lon="2.14547">
        <ele>110.6</ele>
        <time>2022-03-19T09:58:25.000+01:00</time>
      </trkpt>
      <trkpt lat="48.77081" lon="2.14548">
        <ele>114.3</ele>
        <time>2022-03-19T09:58:55.000+01:00</time>
      </trkpt>
      <trkpt lat="48.77072" lon="2.14559">
        <ele>112.9</ele>
        <time>2022-03-19T09:59:10.000+01:00</time>
      </trkpt>
      <trkpt lat="48.77065" lon="2.14552">
        <ele>110.6</ele>
        <time>2022-03-19T09:59:25.000+01:00</time>
      </trkpt>
      <trkpt lat="48.77066" lon="2.14569">
        <ele>108.2</ele>
        <time>2022-03-19T09:59:40.000+01:00</time>
      </trkpt>
      <trkpt lat="48.7707" lon="2.14573">
        <ele>106.4</ele>
        <time>2022-03-19T09:59:50.000+01:00</time>
      </trkpt>
      <trkpt lat="48.77069" lon="2.14576">
        <ele>105.5</ele>
        <time>2022-03-19T10:00:05.000+01:00</time>
      </trkpt>
      <trkpt lat="48.77065" lon="2.14576">
        <ele>104.9</ele>
        <time>2022-03-19T10:00:25.000+01:00</time>
      </trkpt>
      <trkpt lat="48.77072" lon="2.14581">
        <ele>101.9</ele>
        <time>2022-03-19T10:00:40.000+01:00</time>
      </trkpt>
      <trkpt lat="48.77086" lon="2.14582">
        <ele>105.8</ele>
        <time>2022-03-19T10:00:45.000+01:00</time>
      </trkpt>
      <trkpt lat="48.77088" lon="2.14584">
        <ele>107.5</ele>
        <time>2022-03-19T10:01:00.000+01:00</time>
      </trkpt>
      <trkpt lat="48.77089" lon="2.14583">
        <ele>107.3</ele>
        <time>2022-03-19T10:01:20.000+01:00</time>
      </trkpt>
      <trkpt lat="48.77098" lon="2.1458">
        <ele>106.4</ele>
        <time>2022-03-19T10:01:35.000+01:00</time>
      </trkpt>
      <trkpt lat="48.77089" lon="2.14582">
        <ele>109.5</ele>
        <time>2022-03-19T10:01:45.000+01:00</time>
      </trkpt>
      <trkpt lat="48.77083" lon="2.14576">
        <ele>105.5</ele>
        <time>2022-03-19T10:02:05.000+01:00</time>
      </trkpt>
      <trkpt lat="48.77083" lon="2.14566">
        <ele>106.2</ele>
        <time>2022-03-19T10:02:20.000+01:00</time>
      </trkpt>
      <trkpt lat="48.77084" lon="2.14564">
        <ele>107.7</ele>
        <time>2022-03-19T10:02:35.000+01:00</time>
      </trkpt>
      <trkpt lat="48.77074" lon="2.14567">
        <ele>109.4</ele>
        <time>2022-03-19T10:02:40.000+01:00</time>
      </trkpt>
      <trkpt lat="48.77067" lon="2.1458">
        <ele>109.1</ele>
        <time>2022-03-19T10:02:55.000+01:00</time>
      </trkpt>
      <trkpt lat="48.77074" lon="2.14572">
        <ele>115.1</ele>
        <time>2022-03-19T10:03:10.000+01:00</time>
      </trkpt>
      <trkpt lat="48.77074" lon="2.14573">
        <ele>117.5</ele>
        <time>2022-03-19T10:03:25.000+01:00</time>
      </trkpt>
      <trkpt lat="48.77087" lon="2.14571">
        <ele>118.4</ele>
        <time>2022-03-19T10:03:45.000+01:00</time>
      </trkpt>
      <trkpt lat="48.7709" lon="2.14564">
        <ele>115.1</ele>
        <time>2022-03-19T10:04:00.000+01:00</time>
      </trkpt>
      <trkpt lat="48.77079" lon="2.14567">
        <ele>115</ele>
        <time>2022-03-19T10:04:10.000+01:00</time>
      </trkpt>
      <trkpt lat="48.77083" lon="2.14571">
        <ele>111.4</ele>
        <time>2022-03-19T10:04:30.000+01:00</time>
      </trkpt>
      <trkpt lat="48.77081" lon="2.14569">
        <ele>113</ele>
        <time>2022-03-19T10:04:40.000+01:00</time>
      </trkpt>
      <trkpt lat="48.77076" lon="2.14575">
        <ele>115.1</ele>
        <time>2022-03-19T10:04:55.000+01:00</time>
      </trkpt>
      <trkpt lat="48.77078" lon="2.14569">
        <ele>114</ele>
        <time>2022-03-19T10:05:20.000+01:00</time>
      </trkpt>
      <trkpt lat="48.77088" lon="2.1456">
        <ele>115</ele>
        <time>2022-03-19T10:05:35.000+01:00</time>
      </trkpt>
      <trkpt lat="48.77082" lon="2.14571">
        <ele>115</ele>
        <time>2022-03-19T10:05:55.000+01:00</time>
      </trkpt>
      <trkpt lat="48.77081" lon="2.14569">
        <ele>118.2</ele>
        <time>2022-03-19T10:06:10.000+01:00</time>
      </trkpt>
      <trkpt lat="48.77085" lon="2.14559">
        <ele>117.2</ele>
        <time>2022-03-19T10:06:30.000+01:00</time>
      </trkpt>
      <trkpt lat="48.77098" lon="2.1455">
        <ele>116.5</ele>
        <time>2022-03-19T10:06:35.000+01:00</time>
      </trkpt>
      <trkpt lat="48.77093" lon="2.14558">
        <ele>116.5</ele>
        <time>2022-03-19T10:06:45.000+01:00</time>
      </trkpt>
      <trkpt lat="48.77098" lon="2.14547">
        <ele>115.9</ele>
        <time>2022-03-19T10:06:55.000+01:00</time>
      </trkpt>
      <trkpt lat="48.77093" lon="2.14556">
        <ele>112.3</ele>
        <time>2022-03-19T10:07:05.000+01:00</time>
      </trkpt>
      <trkpt lat="48.7709" lon="2.14561">
        <ele>111</ele>
        <time>2022-03-19T10:07:20.000+01:00</time>
      </trkpt>
      <trkpt lat="48.7708" lon="2.14572">
        <ele>108.8</ele>
        <time>2022-03-19T10:07:35.000+01:00</time>
      </trkpt>
      <trkpt lat="48.77084" lon="2.1457">
        <ele>96.6</ele>
        <time>2022-03-19T10:08:05.000+01:00</time>
      </trkpt>
      <trkpt lat="48.77074" lon="2.14571">
        <ele>101.3</ele>
        <time>2022-03-19T10:08:25.000+01:00</time>
      </trkpt>
      <trkpt lat="48.77069" lon="2.14568">
        <ele>102</ele>
        <time>2022-03-19T10:08:45.000+01:00</time>
      </trkpt>
      <trkpt lat="48.77064" lon="2.14569">
        <ele>101.8</ele>
        <time>2022-03-19T10:09:05.000+01:00</time>
      </trkpt>
      <trkpt lat="48.77061" lon="2.14584">
        <ele>102.6</ele>
        <time>2022-03-19T10:09:15.000+01:00</time>
      </trkpt>
      <trkpt lat="48.77068" lon="2.14583">
        <ele>103.4</ele>
        <time>2022-03-19T10:09:35.000+01:00</time>
      </trkpt>
      <trkpt lat="48.7707" lon="2.14589">
        <ele>102</ele>
        <time>2022-03-19T10:10:05.000+01:00</time>
      </trkpt>
      <trkpt lat="48.77074" lon="2.1459">
        <ele>106.1</ele>
        <time>2022-03-19T10:10:40.000+01:00</time>
      </trkpt>
      <trkpt lat="48.77068" lon="2.14586">
        <ele>106.9</ele>
        <time>2022-03-19T10:11:05.000+01:00</time>
      </trkpt>
      <trkpt lat="48.77074" lon="2.14575">
        <ele>104.6</ele>
        <time>2022-03-19T10:11:20.000+01:00</time>
      </trkpt>
      <trkpt lat="48.77074" lon="2.14572">
        <ele>104.7</ele>
        <time>2022-03-19T10:11:30.000+01:00</time>
      </trkpt>
      <trkpt lat="48.77076" lon="2.14574">
        <ele>108.9</ele>
        <time>2022-03-19T10:11:55.000+01:00</time>
      </trkpt>
      <trkpt lat="48.77069" lon="2.14581">
        <ele>110.3</ele>
        <time>2022-03-19T10:12:05.000+01:00</time>
      </trkpt>
      <trkpt lat="48.77065" lon="2.14587">
        <ele>111.3</ele>
        <time>2022-03-19T10:12:20.000+01:00</time>
      </trkpt>
      <trkpt lat="48.77065" lon="2.14597">
        <ele>115.2</ele>
        <time>2022-03-19T10:12:40.000+01:00</time>
      </trkpt>
      <trkpt lat="48.77056" lon="2.14595">
        <ele>115.8</ele>
        <time>2022-03-19T10:12:50.000+01:00</time>
      </trkpt>
      <trkpt lat="48.77054" lon="2.14607">
        <ele>117.5</ele>
        <time>2022-03-19T10:13:00.000+01:00</time>
      </trkpt>
      <trkpt lat="48.77065" lon="2.14601">
        <ele>118.5</ele>
        <time>2022-03-19T10:13:10.000+01:00</time>
      </trkpt>
      <trkpt lat="48.77074" lon="2.14593">
        <ele>118.4</ele>
        <time>2022-03-19T10:13:15.000+01:00</time>
      </trkpt>
      <trkpt lat="48.77083" lon="2.14586">
        <ele>116.5</ele>
        <time>2022-03-19T10:13:20.000+01:00</time>
      </trkpt>
      <trkpt lat="48.7709" lon="2.14581">
        <ele>112.7</ele>
        <time>2022-03-19T10:13:35.000+01:00</time>
      </trkpt>
      <trkpt lat="48.77086" lon="2.14588">
        <ele>114.1</ele>
        <time>2022-03-19T10:13:55.000+01:00</time>
      </trkpt>
      <trkpt lat="48.77078" lon="2.14592">
        <ele>111.5</ele>
        <time>2022-03-19T10:14:10.000+01:00</time>
      </trkpt>
      <trkpt lat="48.77071" lon="2.14604">
        <ele>109.3</ele>
        <time>2022-03-19T10:14:25.000+01:00</time>
      </trkpt>
      <trkpt lat="48.77043" lon="2.14611">
        <ele>100.9</ele>
        <time>2022-03-19T10:14:46.000+01:00</time>
      </trkpt>
      <trkpt lat="48.77054" lon="2.14611">
        <ele>100.6</ele>
        <time>2022-03-19T10:14:55.000+01:00</time>
      </trkpt>
      <trkpt lat="48.77061" lon="2.14599">
        <ele>106</ele>
        <time>2022-03-19T10:15:10.000+01:00</time>
      </trkpt>
      <trkpt lat="48.7706" lon="2.14601">
        <ele>108.5</ele>
        <time>2022-03-19T10:15:30.000+01:00</time>
      </trkpt>
      <trkpt lat="48.77061" lon="2.14608">
        <ele>109.7</ele>
        <time>2022-03-19T10:15:45.000+01:00</time>
      </trkpt>
      <trkpt lat="48.77063" lon="2.14621">
        <ele>110.7</ele>
        <time>2022-03-19T10:15:55.000+01:00</time>
      </trkpt>
      <trkpt lat="48.77065" lon="2.14611">
        <ele>96.6</ele>
        <time>2022-03-19T10:16:15.000+01:00</time>
      </trkpt>
      <trkpt lat="48.77061" lon="2.14627">
        <ele>85</ele>
        <time>2022-03-19T10:16:25.000+01:00</time>
      </trkpt>
      <trkpt lat="48.77058" lon="2.14643">
        <ele>88.7</ele>
        <time>2022-03-19T10:16:35.000+01:00</time>
      </trkpt>
      <trkpt lat="48.77068" lon="2.14642">
        <ele>98</ele>
        <time>2022-03-19T10:16:50.000+01:00</time>
      </trkpt>
      <trkpt lat="48.77065" lon="2.14652">
        <ele>100.3</ele>
        <time>2022-03-19T10:17:10.000+01:00</time>
      </trkpt>
      <trkpt lat="48.7706" lon="2.1465">
        <ele>98.2</ele>
        <time>2022-03-19T10:17:30.000+01:00</time>
      </trkpt>
      <trkpt lat="48.77062" lon="2.14657">
        <ele>98.8</ele>
        <time>2022-03-19T10:17:45.000+01:00</time>
      </trkpt>
      <trkpt lat="48.77065" lon="2.14662">
        <ele>93.2</ele>
        <time>2022-03-19T10:18:05.000+01:00</time>
      </trkpt>
      <trkpt lat="48.77068" lon="2.14658">
        <ele>92.3</ele>
        <time>2022-03-19T10:18:15.000+01:00</time>
      </trkpt>
      <trkpt lat="48.77081" lon="2.14647">
        <ele>102.9</ele>
        <time>2022-03-19T10:18:20.000+01:00</time>
      </trkpt>
      <trkpt lat="48.77066" lon="2.14663">
        <ele>105</ele>
        <time>2022-03-19T10:18:30.000+01:00</time>
      </trkpt>
      <trkpt lat="48.77069" lon="2.14653">
        <ele>95.7</ele>
        <time>2022-03-19T10:18:50.000+01:00</time>
      </trkpt>
      <trkpt lat="48.77065" lon="2.14645">
        <ele>90.1</ele>
        <time>2022-03-19T10:19:15.000+01:00</time>
      </trkpt>
      <trkpt lat="48.77065" lon="2.14651">
        <ele>96.5</ele>
        <time>2022-03-19T10:19:45.000+01:00</time>
      </trkpt>
      <trkpt lat="48.77067" lon="2.14655">
        <ele>99.5</ele>
        <time>2022-03-19T10:20:00.000+01:00</time>
      </trkpt>
      <trkpt lat="48.77075" lon="2.14644">
        <ele>100.5</ele>
        <time>2022-03-19T10:20:30.000+01:00</time>
      </trkpt>
      <trkpt lat="48.7707" lon="2.14649">
        <ele>103.5</ele>
        <time>2022-03-19T10:21:00.000+01:00</time>
      </trkpt>
      <trkpt lat="48.77067" lon="2.14646">
        <ele>98.5</ele>
        <time>2022-03-19T10:21:30.000+01:00</time>
      </trkpt>
      <trkpt lat="48.77062" lon="2.14653">
        <ele>101</ele>
        <time>2022-03-19T10:22:00.000+01:00</time>
      </trkpt>
      <trkpt lat="48.77058" lon="2.14653">
        <ele>96.6</ele>
        <time>2022-03-19T10:22:30.000+01:00</time>
      </trkpt>
      <trkpt lat="48.77063" lon="2.14647">
        <ele>101.3</ele>
        <time>2022-03-19T10:23:00.000+01:00</time>
      </trkpt>
      <trkpt lat="48.7706" lon="2.14654">
        <ele>106.9</ele>
        <time>2022-03-19T10:23:20.000+01:00</time>
      </trkpt>
      <trkpt lat="48.7707" lon="2.14665">
        <ele>109.6</ele>
        <time>2022-03-19T10:23:45.000+01:00</time>
      </trkpt>
      <trkpt lat="48.7709" lon="2.14681">
        <ele>109.6</ele>
        <time>2022-03-19T10:24:06.000+01:00</time>
      </trkpt>
      <trkpt lat="48.77099" lon="2.14688">
        <ele>105.1</ele>
        <time>2022-03-19T10:24:10.000+01:00</time>
      </trkpt>
      <trkpt lat="48.77094" lon="2.14701">
        <ele>107.4</ele>
        <time>2022-03-19T10:24:15.000+01:00</time>
      </trkpt>
      <trkpt lat="48.77085" lon="2.14713">
        <ele>117.8</ele>
        <time>2022-03-19T10:24:25.000+01:00</time>
      </trkpt>
      <trkpt lat="48.77076" lon="2.14718">
        <ele>119</ele>
        <time>2022-03-19T10:24:40.000+01:00</time>
      </trkpt>
      <trkpt lat="48.77072" lon="2.1472">
        <ele>125.2</ele>
        <time>2022-03-19T10:25:00.000+01:00</time>
      </trkpt>
      <trkpt lat="48.77076" lon="2.14736">
        <ele>119.9</ele>
        <time>2022-03-19T10:25:20.000+01:00</time>
      </trkpt>
      <trkpt lat="48.77089" lon="2.14749">
        <ele>114.8</ele>
        <time>2022-03-19T10:25:30.000+01:00</time>
      </trkpt>
      <trkpt lat="48.77081" lon="2.14743">
        <ele>111.3</ele>
        <time>2022-03-19T10:25:45.000+01:00</time>
      </trkpt>
      <trkpt lat="48.77076" lon="2.14738">
        <ele>108.9</ele>
        <time>2022-03-19T10:25:55.000+01:00</time>
      </trkpt>
      <trkpt lat="48.77051" lon="2.14725">
        <ele>104.3</ele>
        <time>2022-03-19T10:26:15.000+01:00</time>
      </trkpt>
      <trkpt lat="48.77049" lon="2.14726">
        <ele>106.6</ele>
        <time>2022-03-19T10:26:25.000+01:00</time>
      </trkpt>
      <trkpt lat="48.7706" lon="2.14733">
        <ele>108</ele>
        <time>2022-03-19T10:26:35.000+01:00</time>
      </trkpt>
      <trkpt lat="48.77074" lon="2.14745">
        <ele>114</ele>
        <time>2022-03-19T10:26:50.000+01:00</time>
      </trkpt>
      <trkpt lat="48.77076" lon="2.14739">
        <ele>111</ele>
        <time>2022-03-19T10:27:20.000+01:00</time>
      </trkpt>
      <trkpt lat="48.77068" lon="2.14731">
        <ele>117.6</ele>
        <time>2022-03-19T10:27:30.000+01:00</time>
      </trkpt>
      <trkpt lat="48.77065" lon="2.1473">
        <ele>124</ele>
        <time>2022-03-19T10:27:45.000+01:00</time>
      </trkpt>
      <trkpt lat="48.77068" lon="2.1472">
        <ele>126.9</ele>
        <time>2022-03-19T10:28:00.000+01:00</time>
      </trkpt>
      <trkpt lat="48.77074" lon="2.14719">
        <ele>120.4</ele>
        <time>2022-03-19T10:28:30.000+01:00</time>
      </trkpt>
      <trkpt lat="48.77074" lon="2.14706">
        <ele>103.9</ele>
        <time>2022-03-19T10:28:40.000+01:00</time>
      </trkpt>
      <trkpt lat="48.77067" lon="2.14697">
        <ele>116.7</ele>
        <time>2022-03-19T10:28:55.000+01:00</time>
      </trkpt>
      <trkpt lat="48.77076" lon="2.14691">
        <ele>114.3</ele>
        <time>2022-03-19T10:29:30.000+01:00</time>
      </trkpt>
      <trkpt lat="48.77083" lon="2.14698">
        <ele>109.2</ele>
        <time>2022-03-19T10:29:45.000+01:00</time>
      </trkpt>
      <trkpt lat="48.77074" lon="2.14705">
        <ele>120.1</ele>
        <time>2022-03-19T10:30:10.000+01:00</time>
      </trkpt>
      <trkpt lat="48.7707" lon="2.14712">
        <ele>118.4</ele>
        <time>2022-03-19T10:30:35.000+01:00</time>
      </trkpt>
      <trkpt lat="48.77068" lon="2.14717">
        <ele>119.8</ele>
        <time>2022-03-19T10:30:50.000+01:00</time>
      </trkpt>
      <trkpt lat="48.77069" lon="2.14723">
        <ele>116.3</ele>
        <time>2022-03-19T10:31:10.000+01:00</time>
      </trkpt>
      <trkpt lat="48.77066" lon="2.14709">
        <ele>116.9</ele>
        <time>2022-03-19T10:31:30.000+01:00</time>
      </trkpt>
      <trkpt lat="48.77066" lon="2.14723">
        <ele>117.1</ele>
        <time>2022-03-19T10:31:50.000+01:00</time>
      </trkpt>
      <trkpt lat="48.77061" lon="2.14734">
        <ele>112.5</ele>
        <time>2022-03-19T10:32:10.000+01:00</time>
      </trkpt>
      <trkpt lat="48.77053" lon="2.14734">
        <ele>107.7</ele>
        <time>2022-03-19T10:32:35.000+01:00</time>
      </trkpt>
      <trkpt lat="48.77063" lon="2.14732">
        <ele>106.6</ele>
        <time>2022-03-19T10:32:55.000+01:00</time>
      </trkpt>
      <trkpt lat="48.77074" lon="2.14734">
        <ele>118.6</ele>
        <time>2022-03-19T10:33:15.000+01:00</time>
      </trkpt>
      <trkpt lat="48.77074" lon="2.14737">
        <ele>117.4</ele>
        <time>2022-03-19T10:33:30.000+01:00</time>
      </trkpt>
      <trkpt lat="48.7708" lon="2.14724">
        <ele>117.5</ele>
        <time>2022-03-19T10:33:45.000+01:00</time>
      </trkpt>
      <trkpt lat="48.77086" lon="2.14711">
        <ele>118.1</ele>
        <time>2022-03-19T10:33:55.000+01:00</time>
      </trkpt>
      <trkpt lat="48.77076" lon="2.14708">
        <ele>117.3</ele>
        <time>2022-03-19T10:34:30.000+01:00</time>
      </trkpt>
      <trkpt lat="48.77073" lon="2.14714">
        <ele>120</ele>
        <time>2022-03-19T10:34:45.000+01:00</time>
      </trkpt>
      <trkpt lat="48.77067" lon="2.14713">
        <ele>121.6</ele>
        <time>2022-03-19T10:35:05.000+01:00</time>
      </trkpt>
      <trkpt lat="48.77058" lon="2.14705">
        <ele>124.1</ele>
        <time>2022-03-19T10:35:20.000+01:00</time>
      </trkpt>
      <trkpt lat="48.77049" lon="2.14699">
        <ele>124.8</ele>
        <time>2022-03-19T10:35:35.000+01:00</time>
      </trkpt>
      <trkpt lat="48.77056" lon="2.14712">
        <ele>129.1</ele>
        <time>2022-03-19T10:35:50.000+01:00</time>
      </trkpt>
      <trkpt lat="48.77056" lon="2.14723">
        <ele>124.5</ele>
        <time>2022-03-19T10:36:10.000+01:00</time>
      </trkpt>
      <trkpt lat="48.77049" lon="2.1471">
        <ele>103.5</ele>
        <time>2022-03-19T10:36:25.000+01:00</time>
      </trkpt>
      <trkpt lat="48.77041" lon="2.14692">
        <ele>106.8</ele>
        <time>2022-03-19T10:36:37.000+01:00</time>
      </trkpt>
      <trkpt lat="48.77037" lon="2.14716">
        <ele>96.2</ele>
        <time>2022-03-19T10:36:50.000+01:00</time>
      </trkpt>
      <trkpt lat="48.77045" lon="2.14712">
        <ele>125.7</ele>
        <time>2022-03-19T10:37:15.000+01:00</time>
      </trkpt>
      <trkpt lat="48.77053" lon="2.14713">
        <ele>111.1</ele>
        <time>2022-03-19T10:37:40.000+01:00</time>
      </trkpt>
      <trkpt lat="48.77059" lon="2.14702">
        <ele>129.4</ele>
        <time>2022-03-19T10:37:55.000+01:00</time>
      </trkpt>
      <trkpt lat="48.77071" lon="2.1471">
        <ele>141.2</ele>
        <time>2022-03-19T10:38:05.000+01:00</time>
      </trkpt>
      <trkpt lat="48.77082" lon="2.14714">
        <ele>147.1</ele>
        <time>2022-03-19T10:38:30.000+01:00</time>
      </trkpt>
      <trkpt lat="48.77096" lon="2.14735">
        <ele>140.9</ele>
        <time>2022-03-19T10:38:40.000+01:00</time>
      </trkpt>
      <trkpt lat="48.77108" lon="2.14746">
        <ele>138.3</ele>
        <time>2022-03-19T10:38:50.000+01:00</time>
      </trkpt>
      <trkpt lat="48.77118" lon="2.14764">
        <ele>133.8</ele>
        <time>2022-03-19T10:39:00.000+01:00</time>
      </trkpt>
      <trkpt lat="48.7713" lon="2.14767">
        <ele>134.2</ele>
        <time>2022-03-19T10:39:15.000+01:00</time>
      </trkpt>
      <trkpt lat="48.77138" lon="2.14771">
        <ele>134</ele>
        <time>2022-03-19T10:39:30.000+01:00</time>
      </trkpt>
      <trkpt lat="48.77147" lon="2.14781">
        <ele>132.2</ele>
        <time>2022-03-19T10:39:45.000+01:00</time>
      </trkpt>
      <trkpt lat="48.77148" lon="2.14782">
        <ele>137.5</ele>
        <time>2022-03-19T10:40:15.000+01:00</time>
      </trkpt>
      <trkpt lat="48.77154" lon="2.14771">
        <ele>124.8</ele>
        <time>2022-03-19T10:40:25.000+01:00</time>
      </trkpt>
      <trkpt lat="48.77162" lon="2.14766">
        <ele>120.2</ele>
        <time>2022-03-19T10:40:35.000+01:00</time>
      </trkpt>
      <trkpt lat="48.77161" lon="2.14773">
        <ele>124.7</ele>
        <time>2022-03-19T10:40:55.000+01:00</time>
      </trkpt>
      <trkpt lat="48.77153" lon="2.14778">
        <ele>124.8</ele>
        <time>2022-03-19T10:41:10.000+01:00</time>
      </trkpt>
      <trkpt lat="48.77137" lon="2.14779">
        <ele>122.4</ele>
        <time>2022-03-19T10:41:25.000+01:00</time>
      </trkpt>
      <trkpt lat="48.77128" lon="2.14777">
        <ele>122.5</ele>
        <time>2022-03-19T10:41:35.000+01:00</time>
      </trkpt>
      <trkpt lat="48.77119" lon="2.14773">
        <ele>123.7</ele>
        <time>2022-03-19T10:41:45.000+01:00</time>
      </trkpt>
      <trkpt lat="48.77112" lon="2.14783">
        <ele>124.9</ele>
        <time>2022-03-19T10:41:55.000+01:00</time>
      </trkpt>
      <trkpt lat="48.77103" lon="2.14789">
        <ele>123.8</ele>
        <time>2022-03-19T10:42:10.000+01:00</time>
      </trkpt>
      <trkpt lat="48.77094" lon="2.14794">
        <ele>120.9</ele>
        <time>2022-03-19T10:42:20.000+01:00</time>
      </trkpt>
      <trkpt lat="48.77083" lon="2.14807">
        <ele>121.4</ele>
        <time>2022-03-19T10:42:35.000+01:00</time>
      </trkpt>
      <trkpt lat="48.7708" lon="2.14824">
        <ele>123.5</ele>
        <time>2022-03-19T10:42:45.000+01:00</time>
      </trkpt>
      <trkpt lat="48.77074" lon="2.14835">
        <ele>124</ele>
        <time>2022-03-19T10:42:55.000+01:00</time>
      </trkpt>
      <trkpt lat="48.77068" lon="2.14846">
        <ele>128.8</ele>
        <time>2022-03-19T10:43:05.000+01:00</time>
      </trkpt>
      <trkpt lat="48.77061" lon="2.14862">
        <ele>132.4</ele>
        <time>2022-03-19T10:43:20.000+01:00</time>
      </trkpt>
      <trkpt lat="48.77058" lon="2.14879">
        <ele>133.2</ele>
        <time>2022-03-19T10:43:35.000+01:00</time>
      </trkpt>
      <trkpt lat="48.77052" lon="2.1489">
        <ele>133.8</ele>
        <time>2022-03-19T10:43:50.000+01:00</time>
      </trkpt>
      <trkpt lat="48.77042" lon="2.14899">
        <ele>134.2</ele>
        <time>2022-03-19T10:44:00.000+01:00</time>
      </trkpt>
      <trkpt lat="48.77034" lon="2.14914">
        <ele>135.9</ele>
        <time>2022-03-19T10:44:15.000+01:00</time>
      </trkpt>
      <trkpt lat="48.7703" lon="2.14927">
        <ele>134.8</ele>
        <time>2022-03-19T10:44:35.000+01:00</time>
      </trkpt>
      <trkpt lat="48.77024" lon="2.14938">
        <ele>136.9</ele>
        <time>2022-03-19T10:44:50.000+01:00</time>
      </trkpt>
      <trkpt lat="48.77017" lon="2.14949">
        <ele>138.9</ele>
        <time>2022-03-19T10:45:05.000+01:00</time>
      </trkpt>
      <trkpt lat="48.77014" lon="2.14962">
        <ele>140.8</ele>
        <time>2022-03-19T10:45:25.000+01:00</time>
      </trkpt>
      <trkpt lat="48.77009" lon="2.14974">
        <ele>142.1</ele>
        <time>2022-03-19T10:45:35.000+01:00</time>
      </trkpt>
      <trkpt lat="48.77003" lon="2.14986">
        <ele>142</ele>
        <time>2022-03-19T10:45:45.000+01:00</time>
      </trkpt>
      <trkpt lat="48.77001" lon="2.15004">
        <ele>142.5</ele>
        <time>2022-03-19T10:45:55.000+01:00</time>
      </trkpt>
      <trkpt lat="48.76996" lon="2.15022">
        <ele>140.5</ele>
        <time>2022-03-19T10:46:05.000+01:00</time>
      </trkpt>
      <trkpt lat="48.76995" lon="2.15043">
        <ele>141.5</ele>
        <time>2022-03-19T10:46:15.000+01:00</time>
      </trkpt>
      <trkpt lat="48.76995" lon="2.15063">
        <ele>143.8</ele>
        <time>2022-03-19T10:46:25.000+01:00</time>
      </trkpt>
      <trkpt lat="48.76993" lon="2.15079">
        <ele>147.7</ele>
        <time>2022-03-19T10:46:35.000+01:00</time>
      </trkpt>
      <trkpt lat="48.76994" lon="2.15101">
        <ele>149.4</ele>
        <time>2022-03-19T10:46:45.000+01:00</time>
      </trkpt>
      <trkpt lat="48.76999" lon="2.15124">
        <ele>150.5</ele>
        <time>2022-03-19T10:47:00.000+01:00</time>
      </trkpt>
      <trkpt lat="48.77005" lon="2.15138">
        <ele>155</ele>
        <time>2022-03-19T10:47:10.000+01:00</time>
      </trkpt>
      <trkpt lat="48.77014" lon="2.1515">
        <ele>156.9</ele>
        <time>2022-03-19T10:47:25.000+01:00</time>
      </trkpt>
      <trkpt lat="48.77021" lon="2.15167">
        <ele>162.6</ele>
        <time>2022-03-19T10:47:35.000+01:00</time>
      </trkpt>
      <trkpt lat="48.77031" lon="2.15177">
        <ele>166.5</ele>
        <time>2022-03-19T10:47:45.000+01:00</time>
      </trkpt>
      <trkpt lat="48.77041" lon="2.15187">
        <ele>173.1</ele>
        <time>2022-03-19T10:48:00.000+01:00</time>
      </trkpt>
      <trkpt lat="48.77051" lon="2.15199">
        <ele>174</ele>
        <time>2022-03-19T10:48:15.000+01:00</time>
      </trkpt>
      <trkpt lat="48.77058" lon="2.15212">
        <ele>174.1</ele>
        <time>2022-03-19T10:48:25.000+01:00</time>
      </trkpt>
      <trkpt lat="48.7707" lon="2.15211">
        <ele>174.1</ele>
        <time>2022-03-19T10:48:35.000+01:00</time>
      </trkpt>
      <trkpt lat="48.77084" lon="2.15223">
        <ele>173.2</ele>
        <time>2022-03-19T10:48:45.000+01:00</time>
      </trkpt>
      <trkpt lat="48.7709" lon="2.15238">
        <ele>171.7</ele>
        <time>2022-03-19T10:48:55.000+01:00</time>
      </trkpt>
      <trkpt lat="48.77097" lon="2.15257">
        <ele>169</ele>
        <time>2022-03-19T10:49:05.000+01:00</time>
      </trkpt>
      <trkpt lat="48.77108" lon="2.15265">
        <ele>168.5</ele>
        <time>2022-03-19T10:49:15.000+01:00</time>
      </trkpt>
      <trkpt lat="48.77103" lon="2.15275">
        <ele>168.3</ele>
        <time>2022-03-19T10:49:30.000+01:00</time>
      </trkpt>
      <trkpt lat="48.77096" lon="2.15285">
        <ele>171.3</ele>
        <time>2022-03-19T10:49:35.000+01:00</time>
      </trkpt>
      <trkpt lat="48.77096" lon="2.15305">
        <ele>168</ele>
        <time>2022-03-19T10:49:45.000+01:00</time>
      </trkpt>
      <trkpt lat="48.77102" lon="2.15316">
        <ele>155.3</ele>
        <time>2022-03-19T10:50:00.000+01:00</time>
      </trkpt>
      <trkpt lat="48.77095" lon="2.15309">
        <ele>151.4</ele>
        <time>2022-03-19T10:50:15.000+01:00</time>
      </trkpt>
      <trkpt lat="48.77088" lon="2.15315">
        <ele>151.4</ele>
        <time>2022-03-19T10:50:30.000+01:00</time>
      </trkpt>
      <trkpt lat="48.77076" lon="2.15321">
        <ele>154.8</ele>
        <time>2022-03-19T10:50:45.000+01:00</time>
      </trkpt>
      <trkpt lat="48.77083" lon="2.15315">
        <ele>157.9</ele>
        <time>2022-03-19T10:50:55.000+01:00</time>
      </trkpt>
      <trkpt lat="48.77092" lon="2.15317">
        <ele>155.5</ele>
        <time>2022-03-19T10:51:05.000+01:00</time>
      </trkpt>
      <trkpt lat="48.77099" lon="2.15322">
        <ele>155.4</ele>
        <time>2022-03-19T10:51:20.000+01:00</time>
      </trkpt>
      <trkpt lat="48.77101" lon="2.1531">
        <ele>158</ele>
        <time>2022-03-19T10:51:40.000+01:00</time>
      </trkpt>
      <trkpt lat="48.77103" lon="2.15305">
        <ele>159.9</ele>
        <time>2022-03-19T10:51:55.000+01:00</time>
      </trkpt>
      <trkpt lat="48.77099" lon="2.1531">
        <ele>160.3</ele>
        <time>2022-03-19T10:52:10.000+01:00</time>
      </trkpt>
      <trkpt lat="48.77091" lon="2.15302">
        <ele>158.4</ele>
        <time>2022-03-19T10:52:20.000+01:00</time>
      </trkpt>
      <trkpt lat="48.77087" lon="2.15315">
        <ele>147.7</ele>
        <time>2022-03-19T10:52:30.000+01:00</time>
      </trkpt>
      <trkpt lat="48.77088" lon="2.15304">
        <ele>148.5</ele>
        <time>2022-03-19T10:52:55.000+01:00</time>
      </trkpt>
      <trkpt lat="48.77095" lon="2.15294">
        <ele>150.7</ele>
        <time>2022-03-19T10:53:05.000+01:00</time>
      </trkpt>
      <trkpt lat="48.77097" lon="2.15293">
        <ele>153.1</ele>
        <time>2022-03-19T10:53:25.000+01:00</time>
      </trkpt>
      <trkpt lat="48.77117" lon="2.15296">
        <ele>155.9</ele>
        <time>2022-03-19T10:53:42.000+01:00</time>
      </trkpt>
      <trkpt lat="48.77127" lon="2.15299">
        <ele>158.8</ele>
        <time>2022-03-19T10:53:45.000+01:00</time>
      </trkpt>
      <trkpt lat="48.77115" lon="2.15289">
        <ele>162.6</ele>
        <time>2022-03-19T10:53:55.000+01:00</time>
      </trkpt>
      <trkpt lat="48.77105" lon="2.15284">
        <ele>154.8</ele>
        <time>2022-03-19T10:54:10.000+01:00</time>
      </trkpt>
      <trkpt lat="48.77105" lon="2.15279">
        <ele>171.7</ele>
        <time>2022-03-19T10:54:20.000+01:00</time>
      </trkpt>
      <trkpt lat="48.77108" lon="2.15293">
        <ele>171.9</ele>
        <time>2022-03-19T10:54:30.000+01:00</time>
      </trkpt>
      <trkpt lat="48.77115" lon="2.15285">
        <ele>161.9</ele>
        <time>2022-03-19T10:54:45.000+01:00</time>
      </trkpt>
      <trkpt lat="48.77106" lon="2.15277">
        <ele>163.6</ele>
        <time>2022-03-19T10:54:55.000+01:00</time>
      </trkpt>
      <trkpt lat="48.77106" lon="2.15276">
        <ele>162.1</ele>
        <time>2022-03-19T10:55:10.000+01:00</time>
      </trkpt>
      <trkpt lat="48.77108" lon="2.15282">
        <ele>165.1</ele>
        <time>2022-03-19T10:55:30.000+01:00</time>
      </trkpt>
      <trkpt lat="48.77112" lon="2.15285">
        <ele>161.8</ele>
        <time>2022-03-19T10:55:45.000+01:00</time>
      </trkpt>
      <trkpt lat="48.77108" lon="2.15283">
        <ele>163</ele>
        <time>2022-03-19T10:55:55.000+01:00</time>
      </trkpt>
      <trkpt lat="48.77101" lon="2.15273">
        <ele>168.2</ele>
        <time>2022-03-19T10:56:10.000+01:00</time>
      </trkpt>
      <trkpt lat="48.77108" lon="2.15276">
        <ele>170.9</ele>
        <time>2022-03-19T10:56:41.000+01:00</time>
      </trkpt>
      <trkpt lat="48.77101" lon="2.15287">
        <ele>170.8</ele>
        <time>2022-03-19T10:56:45.000+01:00</time>
      </trkpt>
      <trkpt lat="48.77101" lon="2.1529">
        <ele>161.6</ele>
        <time>2022-03-19T10:57:00.000+01:00</time>
      </trkpt>
      <trkpt lat="48.77104" lon="2.1528">
        <ele>162.8</ele>
        <time>2022-03-19T10:57:20.000+01:00</time>
      </trkpt>
      <trkpt lat="48.77099" lon="2.15272">
        <ele>164.4</ele>
        <time>2022-03-19T10:57:35.000+01:00</time>
      </trkpt>
      <trkpt lat="48.77096" lon="2.15268">
        <ele>165.9</ele>
        <time>2022-03-19T10:57:55.000+01:00</time>
      </trkpt>
      <trkpt lat="48.77104" lon="2.15282">
        <ele>161.8</ele>
        <time>2022-03-19T10:58:10.000+01:00</time>
      </trkpt>
      <trkpt lat="48.77105" lon="2.15291">
        <ele>162.5</ele>
        <time>2022-03-19T10:58:30.000+01:00</time>
      </trkpt>
      <trkpt lat="48.77095" lon="2.15292">
        <ele>158</ele>
        <time>2022-03-19T10:58:40.000+01:00</time>
      </trkpt>
      <trkpt lat="48.77094" lon="2.15276">
        <ele>156.8</ele>
        <time>2022-03-19T10:59:00.000+01:00</time>
      </trkpt>
      <trkpt lat="48.77108" lon="2.1528">
        <ele>154.8</ele>
        <time>2022-03-19T10:59:05.000+01:00</time>
      </trkpt>
      <trkpt lat="48.77098" lon="2.15278">
        <ele>154.1</ele>
        <time>2022-03-19T10:59:25.000+01:00</time>
      </trkpt>
      <trkpt lat="48.77096" lon="2.15279">
        <ele>148.5</ele>
        <time>2022-03-19T10:59:40.000+01:00</time>
      </trkpt>
      <trkpt lat="48.77106" lon="2.15278">
        <ele>145.5</ele>
        <time>2022-03-19T10:59:55.000+01:00</time>
      </trkpt>
      <trkpt lat="48.77105" lon="2.15291">
        <ele>160.8</ele>
        <time>2022-03-19T11:00:10.000+01:00</time>
      </trkpt>
      <trkpt lat="48.77096" lon="2.15297">
        <ele>162.9</ele>
        <time>2022-03-19T11:00:25.000+01:00</time>
      </trkpt>
      <trkpt lat="48.77096" lon="2.15293">
        <ele>167.9</ele>
        <time>2022-03-19T11:00:45.000+01:00</time>
      </trkpt>
      <trkpt lat="48.77095" lon="2.15281">
        <ele>173.2</ele>
        <time>2022-03-19T11:01:10.000+01:00</time>
      </trkpt>
      <trkpt lat="48.77103" lon="2.15282">
        <ele>164.9</ele>
        <time>2022-03-19T11:01:30.000+01:00</time>
      </trkpt>
      <trkpt lat="48.77105" lon="2.15285">
        <ele>162</ele>
        <time>2022-03-19T11:02:00.000+01:00</time>
      </trkpt>
      <trkpt lat="48.77106" lon="2.15279">
        <ele>159.9</ele>
        <time>2022-03-19T11:02:30.000+01:00</time>
      </trkpt>
      <trkpt lat="48.77107" lon="2.15277">
        <ele>169.7</ele>
        <time>2022-03-19T11:02:55.000+01:00</time>
      </trkpt>
      <trkpt lat="48.77101" lon="2.15275">
        <ele>169.4</ele>
        <time>2022-03-19T11:03:20.000+01:00</time>
      </trkpt>
      <trkpt lat="48.77106" lon="2.15274">
        <ele>168.9</ele>
        <time>2022-03-19T11:03:35.000+01:00</time>
      </trkpt>
      <trkpt lat="48.77104" lon="2.15279">
        <ele>169.1</ele>
        <time>2022-03-19T11:04:05.000+01:00</time>
      </trkpt>
      <trkpt lat="48.77106" lon="2.15275">
        <ele>162.9</ele>
        <time>2022-03-19T11:04:35.000+01:00</time>
      </trkpt>
      <trkpt lat="48.77106" lon="2.15289">
        <ele>161.1</ele>
        <time>2022-03-19T11:04:55.000+01:00</time>
      </trkpt>
      <trkpt lat="48.77105" lon="2.15279">
        <ele>172.2</ele>
        <time>2022-03-19T11:05:15.000+01:00</time>
      </trkpt>
      <trkpt lat="48.77108" lon="2.15266">
        <ele>167.3</ele>
        <time>2022-03-19T11:05:35.000+01:00</time>
      </trkpt>
      <trkpt lat="48.77111" lon="2.15277">
        <ele>158.7</ele>
        <time>2022-03-19T11:05:55.000+01:00</time>
      </trkpt>
      <trkpt lat="48.77108" lon="2.15288">
        <ele>155.2</ele>
        <time>2022-03-19T11:06:11.000+01:00</time>
      </trkpt>
      <trkpt lat="48.77108" lon="2.15309">
        <ele>152.5</ele>
        <time>2022-03-19T11:06:25.000+01:00</time>
      </trkpt>
      <trkpt lat="48.77107" lon="2.1531">
        <ele>154.5</ele>
        <time>2022-03-19T11:06:40.000+01:00</time>
      </trkpt>
      <trkpt lat="48.77109" lon="2.15318">
        <ele>154.3</ele>
        <time>2022-03-19T11:07:00.000+01:00</time>
      </trkpt>
      <trkpt lat="48.77105" lon="2.1531">
        <ele>155.6</ele>
        <time>2022-03-19T11:07:20.000+01:00</time>
      </trkpt>
      <trkpt lat="48.77097" lon="2.15314">
        <ele>160</ele>
        <time>2022-03-19T11:07:31.000+01:00</time>
      </trkpt>
      <trkpt lat="48.77091" lon="2.15304">
        <ele>164.5</ele>
        <time>2022-03-19T11:07:40.000+01:00</time>
      </trkpt>
      <trkpt lat="48.77095" lon="2.15309">
        <ele>173.7</ele>
        <time>2022-03-19T11:07:55.000+01:00</time>
      </trkpt>
      <trkpt lat="48.771" lon="2.15321">
        <ele>174.6</ele>
        <time>2022-03-19T11:08:00.000+01:00</time>
      </trkpt>
      <trkpt lat="48.77113" lon="2.15286">
        <ele>175.4</ele>
        <time>2022-03-19T11:08:37.000+01:00</time>
      </trkpt>
      <trkpt lat="48.77117" lon="2.15294">
        <ele>184.7</ele>
        <time>2022-03-19T11:08:45.000+01:00</time>
      </trkpt>
      <trkpt lat="48.77112" lon="2.15296">
        <ele>185.6</ele>
        <time>2022-03-19T11:08:55.000+01:00</time>
      </trkpt>
      <trkpt lat="48.77107" lon="2.15299">
        <ele>179.1</ele>
        <time>2022-03-19T11:09:10.000+01:00</time>
      </trkpt>
      <trkpt lat="48.77107" lon="2.15282">
        <ele>185.2</ele>
        <time>2022-03-19T11:09:20.000+01:00</time>
      </trkpt>
      <trkpt lat="48.77104" lon="2.15304">
        <ele>181.2</ele>
        <time>2022-03-19T11:09:35.000+01:00</time>
      </trkpt>
      <trkpt lat="48.77104" lon="2.1532">
        <ele>182.8</ele>
        <time>2022-03-19T11:09:45.000+01:00</time>
      </trkpt>
      <trkpt lat="48.77114" lon="2.15325">
        <ele>184.4</ele>
        <time>2022-03-19T11:10:00.000+01:00</time>
      </trkpt>
      <trkpt lat="48.77112" lon="2.15317">
        <ele>156.1</ele>
        <time>2022-03-19T11:10:23.000+01:00</time>
      </trkpt>
      <trkpt lat="48.77122" lon="2.15322">
        <ele>180.1</ele>
        <time>2022-03-19T11:10:30.000+01:00</time>
      </trkpt>
      <trkpt lat="48.7713" lon="2.15335">
        <ele>157.3</ele>
        <time>2022-03-19T11:10:35.000+01:00</time>
      </trkpt>
      <trkpt lat="48.77141" lon="2.15376">
        <ele>158.6</ele>
        <time>2022-03-19T11:10:52.000+01:00</time>
      </trkpt>
      <trkpt lat="48.77128" lon="2.15358">
        <ele>177.6</ele>
        <time>2022-03-19T11:11:03.000+01:00</time>
      </trkpt>
      <trkpt lat="48.77116" lon="2.1536">
        <ele>130.5</ele>
        <time>2022-03-19T11:11:15.000+01:00</time>
      </trkpt>
      <trkpt lat="48.77086" lon="2.15326">
        <ele>154.2</ele>
        <time>2022-03-19T11:11:31.000+01:00</time>
      </trkpt>
      <trkpt lat="48.77076" lon="2.15307">
        <ele>136.5</ele>
        <time>2022-03-19T11:11:35.000+01:00</time>
      </trkpt>
      <trkpt lat="48.77095" lon="2.15308">
        <ele>157.5</ele>
        <time>2022-03-19T11:11:40.000+01:00</time>
      </trkpt>
      <trkpt lat="48.77107" lon="2.15308">
        <ele>172.3</ele>
        <time>2022-03-19T11:11:45.000+01:00</time>
      </trkpt>
      <trkpt lat="48.77115" lon="2.15317">
        <ele>166.8</ele>
        <time>2022-03-19T11:11:50.000+01:00</time>
      </trkpt>
      <trkpt lat="48.77124" lon="2.15325">
        <ele>167.6</ele>
        <time>2022-03-19T11:11:55.000+01:00</time>
      </trkpt>
      <trkpt lat="48.77134" lon="2.15328">
        <ele>173.6</ele>
        <time>2022-03-19T11:12:05.000+01:00</time>
      </trkpt>
      <trkpt lat="48.77139" lon="2.15342">
        <ele>169.9</ele>
        <time>2022-03-19T11:12:20.000+01:00</time>
      </trkpt>
      <trkpt lat="48.77148" lon="2.15357">
        <ele>172.2</ele>
        <time>2022-03-19T11:12:41.000+01:00</time>
      </trkpt>
      <trkpt lat="48.77157" lon="2.15364">
        <ele>174.3</ele>
        <time>2022-03-19T11:12:45.000+01:00</time>
      </trkpt>
      <trkpt lat="48.77169" lon="2.15368">
        <ele>176.8</ele>
        <time>2022-03-19T11:12:50.000+01:00</time>
      </trkpt>
      <trkpt lat="48.77181" lon="2.15374">
        <ele>180.1</ele>
        <time>2022-03-19T11:12:55.000+01:00</time>
      </trkpt>
      <trkpt lat="48.77191" lon="2.15379">
        <ele>181.9</ele>
        <time>2022-03-19T11:13:00.000+01:00</time>
      </trkpt>
      <trkpt lat="48.77202" lon="2.15389">
        <ele>177.4</ele>
        <time>2022-03-19T11:13:10.000+01:00</time>
      </trkpt>
      <trkpt lat="48.77215" lon="2.15395">
        <ele>181.6</ele>
        <time>2022-03-19T11:13:25.000+01:00</time>
      </trkpt>
      <trkpt lat="48.77222" lon="2.15404">
        <ele>182</ele>
        <time>2022-03-19T11:13:40.000+01:00</time>
      </trkpt>
      <trkpt lat="48.7723" lon="2.15414">
        <ele>180.1</ele>
        <time>2022-03-19T11:13:50.000+01:00</time>
      </trkpt>
      <trkpt lat="48.77247" lon="2.15423">
        <ele>179.5</ele>
        <time>2022-03-19T11:14:00.000+01:00</time>
      </trkpt>
      <trkpt lat="48.77258" lon="2.15434">
        <ele>181.8</ele>
        <time>2022-03-19T11:14:15.000+01:00</time>
      </trkpt>
      <trkpt lat="48.77268" lon="2.15441">
        <ele>181.7</ele>
        <time>2022-03-19T11:14:20.000+01:00</time>
      </trkpt>
      <trkpt lat="48.77282" lon="2.15447">
        <ele>181.4</ele>
        <time>2022-03-19T11:14:27.000+01:00</time>
      </trkpt>
      <trkpt lat="48.77289" lon="2.15456">
        <ele>182.6</ele>
        <time>2022-03-19T11:14:40.000+01:00</time>
      </trkpt>
      <trkpt lat="48.77301" lon="2.15467">
        <ele>183.3</ele>
        <time>2022-03-19T11:14:45.000+01:00</time>
      </trkpt>
      <trkpt lat="48.77313" lon="2.15472">
        <ele>185.2</ele>
        <time>2022-03-19T11:14:55.000+01:00</time>
      </trkpt>
      <trkpt lat="48.77316" lon="2.15482">
        <ele>185.5</ele>
        <time>2022-03-19T11:15:10.000+01:00</time>
      </trkpt>
      <trkpt lat="48.77304" lon="2.1548">
        <ele>184.6</ele>
        <time>2022-03-19T11:15:20.000+01:00</time>
      </trkpt>
      <trkpt lat="48.77301" lon="2.15493">
        <ele>181.8</ele>
        <time>2022-03-19T11:15:40.000+01:00</time>
      </trkpt>
      <trkpt lat="48.77305" lon="2.15486">
        <ele>183.9</ele>
        <time>2022-03-19T11:15:55.000+01:00</time>
      </trkpt>
      <trkpt lat="48.77303" lon="2.15473">
        <ele>190.8</ele>
        <time>2022-03-19T11:16:10.000+01:00</time>
      </trkpt>
      <trkpt lat="48.7731" lon="2.15478">
        <ele>188</ele>
        <time>2022-03-19T11:16:20.000+01:00</time>
      </trkpt>
      <trkpt lat="48.77318" lon="2.15471">
        <ele>188.1</ele>
        <time>2022-03-19T11:16:30.000+01:00</time>
      </trkpt>
      <trkpt lat="48.77307" lon="2.15469">
        <ele>186.4</ele>
        <time>2022-03-19T11:16:40.000+01:00</time>
      </trkpt>
      <trkpt lat="48.77318" lon="2.1547">
        <ele>182.5</ele>
        <time>2022-03-19T11:16:50.000+01:00</time>
      </trkpt>
      <trkpt lat="48.77315" lon="2.15468">
        <ele>181.6</ele>
        <time>2022-03-19T11:17:10.000+01:00</time>
      </trkpt>
      <trkpt lat="48.77321" lon="2.15479">
        <ele>181.7</ele>
        <time>2022-03-19T11:17:20.000+01:00</time>
      </trkpt>
      <trkpt lat="48.77323" lon="2.15485">
        <ele>178.3</ele>
        <time>2022-03-19T11:17:55.000+01:00</time>
      </trkpt>
      <trkpt lat="48.77313" lon="2.15492">
        <ele>174.2</ele>
        <time>2022-03-19T11:18:05.000+01:00</time>
      </trkpt>
      <trkpt lat="48.77302" lon="2.15494">
        <ele>176</ele>
        <time>2022-03-19T11:18:20.000+01:00</time>
      </trkpt>
      <trkpt lat="48.77306" lon="2.15496">
        <ele>185.5</ele>
        <time>2022-03-19T11:18:40.000+01:00</time>
      </trkpt>
      <trkpt lat="48.77302" lon="2.15494">
        <ele>186.8</ele>
        <time>2022-03-19T11:19:00.000+01:00</time>
      </trkpt>
      <trkpt lat="48.77317" lon="2.15487">
        <ele>169.1</ele>
        <time>2022-03-19T11:19:25.000+01:00</time>
      </trkpt>
      <trkpt lat="48.77315" lon="2.15495">
        <ele>183</ele>
        <time>2022-03-19T11:19:40.000+01:00</time>
      </trkpt>
      <trkpt lat="48.77305" lon="2.15483">
        <ele>170</ele>
        <time>2022-03-19T11:19:45.000+01:00</time>
      </trkpt>
      <trkpt lat="48.77294" lon="2.1548">
        <ele>168.2</ele>
        <time>2022-03-19T11:19:55.000+01:00</time>
      </trkpt>
      <trkpt lat="48.77303" lon="2.15488">
        <ele>166.8</ele>
        <time>2022-03-19T11:20:05.000+01:00</time>
      </trkpt>
      <trkpt lat="48.77307" lon="2.15499">
        <ele>176.5</ele>
        <time>2022-03-19T11:20:25.000+01:00</time>
      </trkpt>
      <trkpt lat="48.77313" lon="2.15509">
        <ele>182.7</ele>
        <time>2022-03-19T11:20:35.000+01:00</time>
      </trkpt>
      <trkpt lat="48.77305" lon="2.15497">
        <ele>181.4</ele>
        <time>2022-03-19T11:20:45.000+01:00</time>
      </trkpt>
      <trkpt lat="48.773" lon="2.15497">
        <ele>181.7</ele>
        <time>2022-03-19T11:21:05.000+01:00</time>
      </trkpt>
      <trkpt lat="48.77304" lon="2.15513">
        <ele>180.8</ele>
        <time>2022-03-19T11:21:20.000+01:00</time>
      </trkpt>
      <trkpt lat="48.77307" lon="2.15531">
        <ele>176.9</ele>
        <time>2022-03-19T11:21:33.000+01:00</time>
      </trkpt>
      <trkpt lat="48.77307" lon="2.15555">
        <ele>173.6</ele>
        <time>2022-03-19T11:21:40.000+01:00</time>
      </trkpt>
      <trkpt lat="48.77301" lon="2.15544">
        <ele>185.3</ele>
        <time>2022-03-19T11:21:50.000+01:00</time>
      </trkpt>
      <trkpt lat="48.77296" lon="2.15534">
        <ele>182.9</ele>
        <time>2022-03-19T11:22:10.000+01:00</time>
      </trkpt>
      <trkpt lat="48.77284" lon="2.15542">
        <ele>183.1</ele>
        <time>2022-03-19T11:22:35.000+01:00</time>
      </trkpt>
      <trkpt lat="48.77287" lon="2.15564">
        <ele>183.3</ele>
        <time>2022-03-19T11:22:45.000+01:00</time>
      </trkpt>
      <trkpt lat="48.77292" lon="2.15584">
        <ele>182.3</ele>
        <time>2022-03-19T11:22:55.000+01:00</time>
      </trkpt>
      <trkpt lat="48.77295" lon="2.15599">
        <ele>180.8</ele>
        <time>2022-03-19T11:23:05.000+01:00</time>
      </trkpt>
      <trkpt lat="48.77305" lon="2.15613">
        <ele>180.2</ele>
        <time>2022-03-19T11:23:10.000+01:00</time>
      </trkpt>
      <trkpt lat="48.77307" lon="2.15629">
        <ele>182.9</ele>
        <time>2022-03-19T11:23:20.000+01:00</time>
      </trkpt>
      <trkpt lat="48.77296" lon="2.15648">
        <ele>178.6</ele>
        <time>2022-03-19T11:23:30.000+01:00</time>
      </trkpt>
      <trkpt lat="48.77294" lon="2.15661">
        <ele>181</ele>
        <time>2022-03-19T11:23:40.000+01:00</time>
      </trkpt>
      <trkpt lat="48.77296" lon="2.15678">
        <ele>182.9</ele>
        <time>2022-03-19T11:23:50.000+01:00</time>
      </trkpt>
      <trkpt lat="48.77292" lon="2.157">
        <ele>182.6</ele>
        <time>2022-03-19T11:24:00.000+01:00</time>
      </trkpt>
      <trkpt lat="48.77286" lon="2.15716">
        <ele>183.8</ele>
        <time>2022-03-19T11:24:10.000+01:00</time>
      </trkpt>
      <trkpt lat="48.7729" lon="2.15736">
        <ele>186.6</ele>
        <time>2022-03-19T11:24:20.000+01:00</time>
      </trkpt>
      <trkpt lat="48.77287" lon="2.15758">
        <ele>186.4</ele>
        <time>2022-03-19T11:24:30.000+01:00</time>
      </trkpt>
      <trkpt lat="48.77284" lon="2.15779">
        <ele>186.6</ele>
        <time>2022-03-19T11:24:40.000+01:00</time>
      </trkpt>
      <trkpt lat="48.77277" lon="2.15791">
        <ele>184.1</ele>
        <time>2022-03-19T11:24:50.000+01:00</time>
      </trkpt>
      <trkpt lat="48.77279" lon="2.1581">
        <ele>182.7</ele>
        <time>2022-03-19T11:25:00.000+01:00</time>
      </trkpt>
      <trkpt lat="48.77276" lon="2.15833">
        <ele>164.9</ele>
        <time>2022-03-19T11:25:10.000+01:00</time>
      </trkpt>
      <trkpt lat="48.77276" lon="2.15857">
        <ele>184.2</ele>
        <time>2022-03-19T11:25:20.000+01:00</time>
      </trkpt>
      <trkpt lat="48.77273" lon="2.15874">
        <ele>187.3</ele>
        <time>2022-03-19T11:25:30.000+01:00</time>
      </trkpt>
      <trkpt lat="48.77265" lon="2.15886">
        <ele>187.3</ele>
        <time>2022-03-19T11:25:35.000+01:00</time>
      </trkpt>
      <trkpt lat="48.7727" lon="2.15905">
        <ele>188.3</ele>
        <time>2022-03-19T11:25:45.000+01:00</time>
      </trkpt>
      <trkpt lat="48.77271" lon="2.15926">
        <ele>187.6</ele>
        <time>2022-03-19T11:25:55.000+01:00</time>
      </trkpt>
      <trkpt lat="48.77273" lon="2.15946">
        <ele>188.7</ele>
        <time>2022-03-19T11:26:05.000+01:00</time>
      </trkpt>
      <trkpt lat="48.77273" lon="2.15964">
        <ele>191.1</ele>
        <time>2022-03-19T11:26:15.000+01:00</time>
      </trkpt>
      <trkpt lat="48.77264" lon="2.15985">
        <ele>190.6</ele>
        <time>2022-03-19T11:26:25.000+01:00</time>
      </trkpt>
      <trkpt lat="48.77262" lon="2.16006">
        <ele>188.4</ele>
        <time>2022-03-19T11:26:35.000+01:00</time>
      </trkpt>
      <trkpt lat="48.77271" lon="2.16019">
        <ele>188.1</ele>
        <time>2022-03-19T11:26:40.000+01:00</time>
      </trkpt>
      <trkpt lat="48.77279" lon="2.16026">
        <ele>185.9</ele>
        <time>2022-03-19T11:26:50.000+01:00</time>
      </trkpt>
      <trkpt lat="48.77288" lon="2.16038">
        <ele>185.1</ele>
        <time>2022-03-19T11:26:55.000+01:00</time>
      </trkpt>
      <trkpt lat="48.77288" lon="2.1607">
        <ele>185.7</ele>
        <time>2022-03-19T11:27:15.000+01:00</time>
      </trkpt>
      <trkpt lat="48.77291" lon="2.16071">
        <ele>185.9</ele>
        <time>2022-03-19T11:27:37.000+01:00</time>
      </trkpt>
      <trkpt lat="48.77289" lon="2.16051">
        <ele>160.4</ele>
        <time>2022-03-19T11:27:55.000+01:00</time>
      </trkpt>
      <trkpt lat="48.77297" lon="2.16065">
        <ele>167.5</ele>
        <time>2022-03-19T11:28:00.000+01:00</time>
      </trkpt>
      <trkpt lat="48.77306" lon="2.16066">
        <ele>185.2</ele>
        <time>2022-03-19T11:28:20.000+01:00</time>
      </trkpt>
      <trkpt lat="48.7732" lon="2.16086">
        <ele>198.9</ele>
        <time>2022-03-19T11:28:35.000+01:00</time>
      </trkpt>
      <trkpt lat="48.77286" lon="2.16079">
        <ele>177</ele>
        <time>2022-03-19T11:29:15.000+01:00</time>
      </trkpt>
      <trkpt lat="48.7728" lon="2.16087">
        <ele>167.1</ele>
        <time>2022-03-19T11:29:35.000+01:00</time>
      </trkpt>
      <trkpt lat="48.7728" lon="2.1609">
        <ele>159.2</ele>
        <time>2022-03-19T11:29:50.000+01:00</time>
      </trkpt>
      <trkpt lat="48.77283" lon="2.16109">
        <ele>172.7</ele>
        <time>2022-03-19T11:30:00.000+01:00</time>
      </trkpt>
      <trkpt lat="48.77275" lon="2.16118">
        <ele>173.7</ele>
        <time>2022-03-19T11:30:05.000+01:00</time>
      </trkpt>
      <trkpt lat="48.77277" lon="2.16134">
        <ele>175</ele>
        <time>2022-03-19T11:30:15.000+01:00</time>
      </trkpt>
      <trkpt lat="48.77278" lon="2.16148">
        <ele>191.4</ele>
        <time>2022-03-19T11:30:25.000+01:00</time>
      </trkpt>
      <trkpt lat="48.77289" lon="2.16167">
        <ele>199.9</ele>
        <time>2022-03-19T11:30:35.000+01:00</time>
      </trkpt>
      <trkpt lat="48.77272" lon="2.16237">
        <ele>168.4</ele>
        <time>2022-03-19T11:31:16.000+01:00</time>
      </trkpt>
      <trkpt lat="48.77289" lon="2.16345">
        <ele>169.4</ele>
        <time>2022-03-19T11:32:02.000+01:00</time>
      </trkpt>
      <trkpt lat="48.7728" lon="2.16336">
        <ele>168.7</ele>
        <time>2022-03-19T11:32:08.000+01:00</time>
      </trkpt>
      <trkpt lat="48.77284" lon="2.16348">
        <ele>167.1</ele>
        <time>2022-03-19T11:32:17.000+01:00</time>
      </trkpt>
      <trkpt lat="48.77275" lon="2.1634">
        <ele>162.3</ele>
        <time>2022-03-19T11:32:25.000+01:00</time>
      </trkpt>
      <trkpt lat="48.77267" lon="2.16319">
        <ele>168.6</ele>
        <time>2022-03-19T11:32:40.000+01:00</time>
      </trkpt>
      <trkpt lat="48.7728" lon="2.16294">
        <ele>163.4</ele>
        <time>2022-03-19T11:32:45.000+01:00</time>
      </trkpt>
      <trkpt lat="48.77294" lon="2.16299">
        <ele>169</ele>
        <time>2022-03-19T11:32:50.000+01:00</time>
      </trkpt>
      <trkpt lat="48.77276" lon="2.16302">
        <ele>172.4</ele>
        <time>2022-03-19T11:33:23.000+01:00</time>
      </trkpt>
      <trkpt lat="48.77281" lon="2.16314">
        <ele>172.4</ele>
        <time>2022-03-19T11:33:35.000+01:00</time>
      </trkpt>
      <trkpt lat="48.77273" lon="2.1631">
        <ele>163.4</ele>
        <time>2022-03-19T11:33:45.000+01:00</time>
      </trkpt>
      <trkpt lat="48.77263" lon="2.16309">
        <ele>156.6</ele>
        <time>2022-03-19T11:33:53.000+01:00</time>
      </trkpt>
      <trkpt lat="48.77262" lon="2.16319">
        <ele>152</ele>
        <time>2022-03-19T11:34:10.000+01:00</time>
      </trkpt>
      <trkpt lat="48.77271" lon="2.16327">
        <ele>142.7</ele>
        <time>2022-03-19T11:34:35.000+01:00</time>
      </trkpt>
      <trkpt lat="48.77264" lon="2.16331">
        <ele>133.5</ele>
        <time>2022-03-19T11:35:00.000+01:00</time>
      </trkpt>
      <trkpt lat="48.77277" lon="2.16319">
        <ele>146.4</ele>
        <time>2022-03-19T11:35:15.000+01:00</time>
      </trkpt>
      <trkpt lat="48.77266" lon="2.16314">
        <ele>130</ele>
        <time>2022-03-19T11:35:25.000+01:00</time>
      </trkpt>
      <trkpt lat="48.77266" lon="2.16315">
        <ele>126.4</ele>
        <time>2022-03-19T11:35:45.000+01:00</time>
      </trkpt>
      <trkpt lat="48.77263" lon="2.16331">
        <ele>144.4</ele>
        <time>2022-03-19T11:36:05.000+01:00</time>
      </trkpt>
      <trkpt lat="48.77265" lon="2.16312">
        <ele>154</ele>
        <time>2022-03-19T11:36:20.000+01:00</time>
      </trkpt>
      <trkpt lat="48.77271" lon="2.16322">
        <ele>168</ele>
        <time>2022-03-19T11:36:30.000+01:00</time>
      </trkpt>
      <trkpt lat="48.77272" lon="2.16321">
        <ele>175.3</ele>
        <time>2022-03-19T11:36:55.000+01:00</time>
      </trkpt>
      <trkpt lat="48.77274" lon="2.16316">
        <ele>171</ele>
        <time>2022-03-19T11:37:15.000+01:00</time>
      </trkpt>
      <trkpt lat="48.77266" lon="2.16312">
        <ele>138.9</ele>
        <time>2022-03-19T11:37:45.000+01:00</time>
      </trkpt>
      <trkpt lat="48.77264" lon="2.16319">
        <ele>139.4</ele>
        <time>2022-03-19T11:38:10.000+01:00</time>
      </trkpt>
      <trkpt lat="48.77294" lon="2.16318">
        <ele>169.3</ele>
        <time>2022-03-19T11:38:35.000+01:00</time>
      </trkpt>
      <trkpt lat="48.77251" lon="2.16283">
        <ele>167.3</ele>
        <time>2022-03-19T11:39:26.000+01:00</time>
      </trkpt>
      <trkpt lat="48.77237" lon="2.16288">
        <ele>72</ele>
        <time>2022-03-19T11:39:40.000+01:00</time>
      </trkpt>
      <trkpt lat="48.77268" lon="2.16289">
        <ele>168.4</ele>
        <time>2022-03-19T11:42:36.000+01:00</time>
      </trkpt>
      <trkpt lat="48.77255" lon="2.16308">
        <ele>168.2</ele>
        <time>2022-03-19T11:42:42.000+01:00</time>
      </trkpt>
      <trkpt lat="48.77265" lon="2.16303">
        <ele>169.9</ele>
        <time>2022-03-19T11:42:46.000+01:00</time>
      </trkpt>
      <trkpt lat="48.77273" lon="2.16303">
        <ele>176.5</ele>
        <time>2022-03-19T11:43:08.000+01:00</time>
      </trkpt>
      <trkpt lat="48.7727" lon="2.16312">
        <ele>173.1</ele>
        <time>2022-03-19T11:43:35.000+01:00</time>
      </trkpt>
      <trkpt lat="48.77265" lon="2.16318">
        <ele>168.5</ele>
        <time>2022-03-19T11:43:50.000+01:00</time>
      </trkpt>
      <trkpt lat="48.77268" lon="2.16329">
        <ele>176.6</ele>
        <time>2022-03-19T11:44:05.000+01:00</time>
      </trkpt>
      <trkpt lat="48.77278" lon="2.16331">
        <ele>182.4</ele>
        <time>2022-03-19T11:44:10.000+01:00</time>
      </trkpt>
      <trkpt lat="48.7727" lon="2.1634">
        <ele>167</ele>
        <time>2022-03-19T11:44:25.000+01:00</time>
      </trkpt>
      <trkpt lat="48.77269" lon="2.16337">
        <ele>165.8</ele>
        <time>2022-03-19T11:44:45.000+01:00</time>
      </trkpt>
      <trkpt lat="48.77264" lon="2.1633">
        <ele>164.6</ele>
        <time>2022-03-19T11:45:00.000+01:00</time>
      </trkpt>
      <trkpt lat="48.77265" lon="2.1633">
        <ele>164.3</ele>
        <time>2022-03-19T11:45:15.000+01:00</time>
      </trkpt>
      <trkpt lat="48.77266" lon="2.16346">
        <ele>168.6</ele>
        <time>2022-03-19T11:45:30.000+01:00</time>
      </trkpt>
      <trkpt lat="48.77268" lon="2.16344">
        <ele>177</ele>
        <time>2022-03-19T11:45:45.000+01:00</time>
      </trkpt>
      <trkpt lat="48.77289" lon="2.1633">
        <ele>180.9</ele>
        <time>2022-03-19T11:47:47.000+01:00</time>
      </trkpt>
      <trkpt lat="48.77279" lon="2.16346">
        <ele>179.7</ele>
        <time>2022-03-19T11:47:55.000+01:00</time>
      </trkpt>
      <trkpt lat="48.77272" lon="2.16359">
        <ele>188.4</ele>
        <time>2022-03-19T11:48:05.000+01:00</time>
      </trkpt>
      <trkpt lat="48.77251" lon="2.16351">
        <ele>202.4</ele>
        <time>2022-03-19T11:48:21.000+01:00</time>
      </trkpt>
      <trkpt lat="48.77244" lon="2.16356">
        <ele>187.3</ele>
        <time>2022-03-19T11:48:30.000+01:00</time>
      </trkpt>
      <trkpt lat="48.77246" lon="2.16371">
        <ele>179.7</ele>
        <time>2022-03-19T11:48:45.000+01:00</time>
      </trkpt>
      <trkpt lat="48.77251" lon="2.16377">
        <ele>168</ele>
        <time>2022-03-19T11:48:56.000+01:00</time>
      </trkpt>
      <trkpt lat="48.77247" lon="2.16364">
        <ele>183.7</ele>
        <time>2022-03-19T11:49:10.000+01:00</time>
      </trkpt>
      <trkpt lat="48.77242" lon="2.1636">
        <ele>167.7</ele>
        <time>2022-03-19T11:49:25.000+01:00</time>
      </trkpt>
      <trkpt lat="48.7723" lon="2.16363">
        <ele>167.3</ele>
        <time>2022-03-19T11:49:37.000+01:00</time>
      </trkpt>
      <trkpt lat="48.77234" lon="2.16381">
        <ele>190.8</ele>
        <time>2022-03-19T11:49:45.000+01:00</time>
      </trkpt>
      <trkpt lat="48.77239" lon="2.16404">
        <ele>174.9</ele>
        <time>2022-03-19T11:50:00.000+01:00</time>
      </trkpt>
      <trkpt lat="48.77242" lon="2.16413">
        <ele>178.9</ele>
        <time>2022-03-19T11:50:15.000+01:00</time>
      </trkpt>
      <trkpt lat="48.77234" lon="2.16425">
        <ele>175.2</ele>
        <time>2022-03-19T11:50:25.000+01:00</time>
      </trkpt>
      <trkpt lat="48.77226" lon="2.16436">
        <ele>165.2</ele>
        <time>2022-03-19T11:50:35.000+01:00</time>
      </trkpt>
      <trkpt lat="48.77222" lon="2.16449">
        <ele>172.5</ele>
        <time>2022-03-19T11:50:45.000+01:00</time>
      </trkpt>
      <trkpt lat="48.77201" lon="2.16477">
        <ele>190</ele>
        <time>2022-03-19T11:51:07.000+01:00</time>
      </trkpt>
      <trkpt lat="48.77188" lon="2.16477">
        <ele>179</ele>
        <time>2022-03-19T11:51:10.000+01:00</time>
      </trkpt>
      <trkpt lat="48.77188" lon="2.16499">
        <ele>171.1</ele>
        <time>2022-03-19T11:51:20.000+01:00</time>
      </trkpt>
      <trkpt lat="48.77192" lon="2.16541">
        <ele>159.1</ele>
        <time>2022-03-19T11:51:38.000+01:00</time>
      </trkpt>
      <trkpt lat="48.77186" lon="2.16565">
        <ele>155.1</ele>
        <time>2022-03-19T11:51:46.000+01:00</time>
      </trkpt>
      <trkpt lat="48.77177" lon="2.16569">
        <ele>154.5</ele>
        <time>2022-03-19T11:51:50.000+01:00</time>
      </trkpt>
      <trkpt lat="48.77185" lon="2.16578">
        <ele>157.1</ele>
        <time>2022-03-19T11:51:55.000+01:00</time>
      </trkpt>
      <trkpt lat="48.77204" lon="2.1664">
        <ele>166</ele>
        <time>2022-03-19T11:54:13.000+01:00</time>
      </trkpt>
      <trkpt lat="48.77189" lon="2.16637">
        <ele>149.3</ele>
        <time>2022-03-19T11:54:45.000+01:00</time>
      </trkpt>
      <trkpt lat="48.7718" lon="2.1664">
        <ele>165.5</ele>
        <time>2022-03-19T11:55:05.000+01:00</time>
      </trkpt>
      <trkpt lat="48.77169" lon="2.16662">
        <ele>165.2</ele>
        <time>2022-03-19T11:55:46.000+01:00</time>
      </trkpt>
      <trkpt lat="48.77162" lon="2.16685">
        <ele>176.4</ele>
        <time>2022-03-19T11:56:10.000+01:00</time>
      </trkpt>
      <trkpt lat="48.77155" lon="2.16699">
        <ele>181.9</ele>
        <time>2022-03-19T11:56:15.000+01:00</time>
      </trkpt>
      <trkpt lat="48.77159" lon="2.16702">
        <ele>167.4</ele>
        <time>2022-03-19T11:56:25.000+01:00</time>
      </trkpt>
      <trkpt lat="48.77158" lon="2.16687">
        <ele>164.7</ele>
        <time>2022-03-19T11:56:35.000+01:00</time>
      </trkpt>
      <trkpt lat="48.77156" lon="2.1668">
        <ele>164.6</ele>
        <time>2022-03-19T11:56:50.000+01:00</time>
      </trkpt>
      <trkpt lat="48.77156" lon="2.16704">
        <ele>160.1</ele>
        <time>2022-03-19T11:57:10.000+01:00</time>
      </trkpt>
      <trkpt lat="48.77154" lon="2.16698">
        <ele>171.6</ele>
        <time>2022-03-19T11:57:35.000+01:00</time>
      </trkpt>
      <trkpt lat="48.77142" lon="2.16724">
        <ele>168.5</ele>
        <time>2022-03-19T11:57:48.000+01:00</time>
      </trkpt>
      <trkpt lat="48.77129" lon="2.1671">
        <ele>164.4</ele>
        <time>2022-03-19T11:57:55.000+01:00</time>
      </trkpt>
      <trkpt lat="48.77128" lon="2.16722">
        <ele>163.6</ele>
        <time>2022-03-19T11:58:05.000+01:00</time>
      </trkpt>
      <trkpt lat="48.77134" lon="2.1673">
        <ele>163.8</ele>
        <time>2022-03-19T11:58:15.000+01:00</time>
      </trkpt>
      <trkpt lat="48.77129" lon="2.16747">
        <ele>166.8</ele>
        <time>2022-03-19T11:58:25.000+01:00</time>
      </trkpt>
      <trkpt lat="48.77117" lon="2.1675">
        <ele>162.8</ele>
        <time>2022-03-19T11:58:30.000+01:00</time>
      </trkpt>
      <trkpt lat="48.77108" lon="2.16767">
        <ele>165.2</ele>
        <time>2022-03-19T11:58:40.000+01:00</time>
      </trkpt>
      <trkpt lat="48.77099" lon="2.16772">
        <ele>168.7</ele>
        <time>2022-03-19T11:58:45.000+01:00</time>
      </trkpt>
      <trkpt lat="48.7709" lon="2.16781">
        <ele>162.2</ele>
        <time>2022-03-19T11:58:56.000+01:00</time>
      </trkpt>
      <trkpt lat="48.77085" lon="2.16803">
        <ele>171.3</ele>
        <time>2022-03-19T11:59:05.000+01:00</time>
      </trkpt>
      <trkpt lat="48.77075" lon="2.1681">
        <ele>175.3</ele>
        <time>2022-03-19T11:59:10.000+01:00</time>
      </trkpt>
      <trkpt lat="48.77062" lon="2.16807">
        <ele>176.6</ele>
        <time>2022-03-19T11:59:15.000+01:00</time>
      </trkpt>
      <trkpt lat="48.77053" lon="2.16804">
        <ele>178</ele>
        <time>2022-03-19T11:59:21.000+01:00</time>
      </trkpt>
      <trkpt lat="48.77038" lon="2.16804">
        <ele>161</ele>
        <time>2022-03-19T11:59:36.000+01:00</time>
      </trkpt>
      <trkpt lat="48.76979" lon="2.16836">
        <ele>159.2</ele>
        <time>2022-03-19T12:00:10.000+01:00</time>
      </trkpt>
      <trkpt lat="48.76993" lon="2.16822">
        <ele>140.3</ele>
        <time>2022-03-19T12:00:45.000+01:00</time>
      </trkpt>
      <trkpt lat="48.76981" lon="2.16827">
        <ele>157.8</ele>
        <time>2022-03-19T12:00:50.000+01:00</time>
      </trkpt>
      <trkpt lat="48.76967" lon="2.16825">
        <ele>163.9</ele>
        <time>2022-03-19T12:01:00.000+01:00</time>
      </trkpt>
      <trkpt lat="48.76951" lon="2.16842">
        <ele>158.2</ele>
        <time>2022-03-19T12:01:17.000+01:00</time>
      </trkpt>
      <trkpt lat="48.7694" lon="2.16845">
        <ele>157.8</ele>
        <time>2022-03-19T12:01:32.000+01:00</time>
      </trkpt>
      <trkpt lat="48.76926" lon="2.16849">
        <ele>161.6</ele>
        <time>2022-03-19T12:01:40.000+01:00</time>
      </trkpt>
      <trkpt lat="48.76935" lon="2.16856">
        <ele>153.2</ele>
        <time>2022-03-19T12:01:50.000+01:00</time>
      </trkpt>
      <trkpt lat="48.76945" lon="2.16857">
        <ele>144.2</ele>
        <time>2022-03-19T12:01:55.000+01:00</time>
      </trkpt>
      <trkpt lat="48.76936" lon="2.16873">
        <ele>131.3</ele>
        <time>2022-03-19T12:02:10.000+01:00</time>
      </trkpt>
      <trkpt lat="48.76917" lon="2.16881">
        <ele>136.2</ele>
        <time>2022-03-19T12:02:20.000+01:00</time>
      </trkpt>
      <trkpt lat="48.76904" lon="2.16883">
        <ele>137</ele>
        <time>2022-03-19T12:02:25.000+01:00</time>
      </trkpt>
      <trkpt lat="48.76892" lon="2.16881">
        <ele>134.9</ele>
        <time>2022-03-19T12:02:30.000+01:00</time>
      </trkpt>
      <trkpt lat="48.76879" lon="2.16878">
        <ele>141.7</ele>
        <time>2022-03-19T12:02:35.000+01:00</time>
      </trkpt>
      <trkpt lat="48.76868" lon="2.16877">
        <ele>145.1</ele>
        <time>2022-03-19T12:02:40.000+01:00</time>
      </trkpt>
      <trkpt lat="48.76868" lon="2.16877">
        <ele>152.3</ele>
        <time>2022-03-19T12:02:52.000+01:00</time>
      </trkpt>
      <trkpt lat="48.76857" lon="2.16874">
        <ele>143.6</ele>
        <time>2022-03-19T12:02:55.000+01:00</time>
      </trkpt>
      <trkpt lat="48.76847" lon="2.16867">
        <ele>148.1</ele>
        <time>2022-03-19T12:03:05.000+01:00</time>
      </trkpt>
      <trkpt lat="48.76845" lon="2.16865">
        <ele>147.7</ele>
        <time>2022-03-19T12:03:20.000+01:00</time>
      </trkpt>
      <trkpt lat="48.76874" lon="2.16903">
        <ele>145.2</ele>
        <time>2022-03-19T12:03:40.000+01:00</time>
      </trkpt>
      <trkpt lat="48.76877" lon="2.16889">
        <ele>136.1</ele>
        <time>2022-03-19T12:04:00.000+01:00</time>
      </trkpt>
      <trkpt lat="48.76867" lon="2.16883">
        <ele>132.7</ele>
        <time>2022-03-19T12:04:05.000+01:00</time>
      </trkpt>
      <trkpt lat="48.76849" lon="2.16869">
        <ele>143.9</ele>
        <time>2022-03-19T12:04:10.000+01:00</time>
      </trkpt>
      <trkpt lat="48.76853" lon="2.16872">
        <ele>149.4</ele>
        <time>2022-03-19T12:04:27.000+01:00</time>
      </trkpt>
      <trkpt lat="48.76861" lon="2.16886">
        <ele>151</ele>
        <time>2022-03-19T12:04:35.000+01:00</time>
      </trkpt>
      <trkpt lat="48.76852" lon="2.16907">
        <ele>94.1</ele>
        <time>2022-03-19T12:05:08.000+01:00</time>
      </trkpt>
      <trkpt lat="48.76873" lon="2.16914">
        <ele>151.7</ele>
        <time>2022-03-19T12:05:15.000+01:00</time>
      </trkpt>
      <trkpt lat="48.76876" lon="2.16929">
        <ele>151.7</ele>
        <time>2022-03-19T12:05:28.000+01:00</time>
      </trkpt>
      <trkpt lat="48.76856" lon="2.16921">
        <ele>93.8</ele>
        <time>2022-03-19T12:05:37.000+01:00</time>
      </trkpt>
      <trkpt lat="48.76788" lon="2.1697">
        <ele>123.2</ele>
        <time>2022-03-19T12:09:05.000+01:00</time>
      </trkpt>
      <trkpt lat="48.76777" lon="2.16932">
        <ele>100.6</ele>
        <time>2022-03-19T12:09:17.000+01:00</time>
      </trkpt>
      <trkpt lat="48.76767" lon="2.16921">
        <ele>117.1</ele>
        <time>2022-03-19T12:09:21.000+01:00</time>
      </trkpt>
      <trkpt lat="48.76759" lon="2.16911">
        <ele>126.7</ele>
        <time>2022-03-19T12:09:25.000+01:00</time>
      </trkpt>
      <trkpt lat="48.7676" lon="2.16892">
        <ele>133.8</ele>
        <time>2022-03-19T12:09:40.000+01:00</time>
      </trkpt>
      <trkpt lat="48.76758" lon="2.16871">
        <ele>115.6</ele>
        <time>2022-03-19T12:09:51.000+01:00</time>
      </trkpt>
      <trkpt lat="48.76754" lon="2.1683">
        <ele>113.6</ele>
        <time>2022-03-19T12:10:16.000+01:00</time>
      </trkpt>
      <trkpt lat="48.76764" lon="2.16842">
        <ele>138.8</ele>
        <time>2022-03-19T12:10:26.000+01:00</time>
      </trkpt>
      <trkpt lat="48.76753" lon="2.16838">
        <ele>113.3</ele>
        <time>2022-03-19T12:10:32.000+01:00</time>
      </trkpt>
      <trkpt lat="48.76739" lon="2.16852">
        <ele>127.3</ele>
        <time>2022-03-19T12:10:42.000+01:00</time>
      </trkpt>
      <trkpt lat="48.76733" lon="2.16867">
        <ele>108.6</ele>
        <time>2022-03-19T12:10:53.000+01:00</time>
      </trkpt>
      <trkpt lat="48.76743" lon="2.16839">
        <ele>110.6</ele>
        <time>2022-03-19T12:11:36.000+01:00</time>
      </trkpt>
      <trkpt lat="48.76748" lon="2.16856">
        <ele>86.8</ele>
        <time>2022-03-19T12:11:55.000+01:00</time>
      </trkpt>
      <trkpt lat="48.76737" lon="2.16838">
        <ele>106</ele>
        <time>2022-03-19T12:12:10.000+01:00</time>
      </trkpt>
      <trkpt lat="48.76728" lon="2.16835">
        <ele>119.5</ele>
        <time>2022-03-19T12:12:21.000+01:00</time>
      </trkpt>
      <trkpt lat="48.76718" lon="2.16836">
        <ele>134.4</ele>
        <time>2022-03-19T12:12:25.000+01:00</time>
      </trkpt>
      <trkpt lat="48.76705" lon="2.16838">
        <ele>136.5</ele>
        <time>2022-03-19T12:12:35.000+01:00</time>
      </trkpt>
      <trkpt lat="48.76694" lon="2.16836">
        <ele>100.9</ele>
        <time>2022-03-19T12:12:45.000+01:00</time>
      </trkpt>
      <trkpt lat="48.7669" lon="2.16823">
        <ele>100</ele>
        <time>2022-03-19T12:13:05.000+01:00</time>
      </trkpt>
      <trkpt lat="48.76696" lon="2.16827">
        <ele>101.1</ele>
        <time>2022-03-19T12:14:32.000+01:00</time>
      </trkpt>
      <trkpt lat="48.76658" lon="2.16811">
        <ele>165.7</ele>
        <time>2022-03-19T12:14:35.000+01:00</time>
      </trkpt>
      <trkpt lat="48.7667" lon="2.16801">
        <ele>101.2</ele>
        <time>2022-03-19T12:14:46.000+01:00</time>
      </trkpt>
      <trkpt lat="48.76681" lon="2.16803">
        <ele>80</ele>
        <time>2022-03-19T12:14:55.000+01:00</time>
      </trkpt>
      <trkpt lat="48.7669" lon="2.168">
        <ele>77.6</ele>
        <time>2022-03-19T12:15:00.000+01:00</time>
      </trkpt>
      <trkpt lat="48.76678" lon="2.16798">
        <ele>88</ele>
        <time>2022-03-19T12:15:15.000+01:00</time>
      </trkpt>
      <trkpt lat="48.76689" lon="2.16799">
        <ele>85.2</ele>
        <time>2022-03-19T12:15:20.000+01:00</time>
      </trkpt>
      <trkpt lat="48.76674" lon="2.16793">
        <ele>100.6</ele>
        <time>2022-03-19T12:15:30.000+01:00</time>
      </trkpt>
      <trkpt lat="48.76575" lon="2.16781">
        <ele>90.8</ele>
        <time>2022-03-19T12:16:55.000+01:00</time>
      </trkpt>
      <trkpt lat="48.76571" lon="2.16761">
        <ele>77.2</ele>
        <time>2022-03-19T12:17:07.000+01:00</time>
      </trkpt>
      <trkpt lat="48.76558" lon="2.16756">
        <ele>68.1</ele>
        <time>2022-03-19T12:17:23.000+01:00</time>
      </trkpt>
      <trkpt lat="48.76543" lon="2.16755">
        <ele>75.3</ele>
        <time>2022-03-19T12:17:30.000+01:00</time>
      </trkpt>
      <trkpt lat="48.76524" lon="2.1676">
        <ele>70.4</ele>
        <time>2022-03-19T12:17:47.000+01:00</time>
      </trkpt>
      <trkpt lat="48.76511" lon="2.16751">
        <ele>73.5</ele>
        <time>2022-03-19T12:17:56.000+01:00</time>
      </trkpt>
      <trkpt lat="48.76503" lon="2.16745">
        <ele>66.8</ele>
        <time>2022-03-19T12:18:10.000+01:00</time>
      </trkpt>
      <trkpt lat="48.76483" lon="2.16778">
        <ele>87.6</ele>
        <time>2022-03-19T12:18:38.000+01:00</time>
      </trkpt>
      <trkpt lat="48.76541" lon="2.1678">
        <ele>26.1</ele>
        <time>2022-03-19T12:19:02.000+01:00</time>
      </trkpt>
      <trkpt lat="48.76424" lon="2.16759">
        <ele>97.2</ele>
        <time>2022-03-19T12:20:40.000+01:00</time>
      </trkpt>
      <trkpt lat="48.76441" lon="2.16778">
        <ele>114.6</ele>
        <time>2022-03-19T12:20:45.000+01:00</time>
      </trkpt>
      <trkpt lat="48.7644" lon="2.16773">
        <ele>126.8</ele>
        <time>2022-03-19T12:20:55.000+01:00</time>
      </trkpt>
      <trkpt lat="48.76436" lon="2.16768">
        <ele>130.5</ele>
        <time>2022-03-19T12:21:10.000+01:00</time>
      </trkpt>
      <trkpt lat="48.7644" lon="2.16774">
        <ele>88.3</ele>
        <time>2022-03-19T12:21:25.000+01:00</time>
      </trkpt>
      <trkpt lat="48.76431" lon="2.16771">
        <ele>130</ele>
        <time>2022-03-19T12:21:41.000+01:00</time>
      </trkpt>
      <trkpt lat="48.76439" lon="2.16771">
        <ele>120.2</ele>
        <time>2022-03-19T12:22:05.000+01:00</time>
      </trkpt>
      <trkpt lat="48.76435" lon="2.16761">
        <ele>89</ele>
        <time>2022-03-19T12:22:25.000+01:00</time>
      </trkpt>
      <trkpt lat="48.76425" lon="2.16749">
        <ele>89.7</ele>
        <time>2022-03-19T12:22:36.000+01:00</time>
      </trkpt>
      <trkpt lat="48.76405" lon="2.16754">
        <ele>136.3</ele>
        <time>2022-03-19T12:22:51.000+01:00</time>
      </trkpt>
      <trkpt lat="48.76416" lon="2.16759">
        <ele>126.3</ele>
        <time>2022-03-19T12:23:01.000+01:00</time>
      </trkpt>
      <trkpt lat="48.76439" lon="2.16775">
        <ele>94.1</ele>
        <time>2022-03-19T12:23:12.000+01:00</time>
      </trkpt>
      <trkpt lat="48.76443" lon="2.16764">
        <ele>75.7</ele>
        <time>2022-03-19T12:23:21.000+01:00</time>
      </trkpt>
      <trkpt lat="48.76443" lon="2.1675">
        <ele>90.8</ele>
        <time>2022-03-19T12:23:35.000+01:00</time>
      </trkpt>
      <trkpt lat="48.76452" lon="2.16738">
        <ele>97.7</ele>
        <time>2022-03-19T12:23:40.000+01:00</time>
      </trkpt>
      <trkpt lat="48.76443" lon="2.16725">
        <ele>90.4</ele>
        <time>2022-03-19T12:23:46.000+01:00</time>
      </trkpt>
      <trkpt lat="48.7643" lon="2.16706">
        <ele>96.9</ele>
        <time>2022-03-19T12:23:56.000+01:00</time>
      </trkpt>
      <trkpt lat="48.76418" lon="2.16689">
        <ele>91.8</ele>
        <time>2022-03-19T12:24:05.000+01:00</time>
      </trkpt>
      <trkpt lat="48.76418" lon="2.16675">
        <ele>94</ele>
        <time>2022-03-19T12:24:15.000+01:00</time>
      </trkpt>
      <trkpt lat="48.76414" lon="2.16653">
        <ele>89.4</ele>
        <time>2022-03-19T12:24:26.000+01:00</time>
      </trkpt>
      <trkpt lat="48.76406" lon="2.16635">
        <ele>89.5</ele>
        <time>2022-03-19T12:24:36.000+01:00</time>
      </trkpt>
      <trkpt lat="48.76401" lon="2.16622">
        <ele>90.8</ele>
        <time>2022-03-19T12:24:50.000+01:00</time>
      </trkpt>
      <trkpt lat="48.76394" lon="2.16602">
        <ele>89.4</ele>
        <time>2022-03-19T12:25:00.000+01:00</time>
      </trkpt>
      <trkpt lat="48.76397" lon="2.16589">
        <ele>90.7</ele>
        <time>2022-03-19T12:25:10.000+01:00</time>
      </trkpt>
      <trkpt lat="48.76397" lon="2.16554">
        <ele>84.1</ele>
        <time>2022-03-19T12:25:25.000+01:00</time>
      </trkpt>
      <trkpt lat="48.76394" lon="2.16551">
        <ele>123.1</ele>
        <time>2022-03-19T12:25:40.000+01:00</time>
      </trkpt>
      <trkpt lat="48.76398" lon="2.16526">
        <ele>127.1</ele>
        <time>2022-03-19T12:25:55.000+01:00</time>
      </trkpt>
      <trkpt lat="48.76397" lon="2.16501">
        <ele>136</ele>
        <time>2022-03-19T12:26:06.000+01:00</time>
      </trkpt>
      <trkpt lat="48.76405" lon="2.1649">
        <ele>128</ele>
        <time>2022-03-19T12:26:10.000+01:00</time>
      </trkpt>
      <trkpt lat="48.76402" lon="2.16477">
        <ele>90.5</ele>
        <time>2022-03-19T12:26:22.000+01:00</time>
      </trkpt>
      <trkpt lat="48.76397" lon="2.16426">
        <ele>107.8</ele>
        <time>2022-03-19T12:26:35.000+01:00</time>
      </trkpt>
      <trkpt lat="48.76403" lon="2.16416">
        <ele>99.9</ele>
        <time>2022-03-19T12:26:40.000+01:00</time>
      </trkpt>
      <trkpt lat="48.76415" lon="2.16395">
        <ele>103.2</ele>
        <time>2022-03-19T12:27:00.000+01:00</time>
      </trkpt>
      <trkpt lat="48.76419" lon="2.16372">
        <ele>96.2</ele>
        <time>2022-03-19T12:27:10.000+01:00</time>
      </trkpt>
      <trkpt lat="48.76418" lon="2.16359">
        <ele>108.2</ele>
        <time>2022-03-19T12:27:20.000+01:00</time>
      </trkpt>
      <trkpt lat="48.76413" lon="2.16345">
        <ele>99.9</ele>
        <time>2022-03-19T12:27:25.000+01:00</time>
      </trkpt>
      <trkpt lat="48.7641" lon="2.16331">
        <ele>98.5</ele>
        <time>2022-03-19T12:27:30.000+01:00</time>
      </trkpt>
      <trkpt lat="48.76413" lon="2.16314">
        <ele>99.4</ele>
        <time>2022-03-19T12:27:40.000+01:00</time>
      </trkpt>
      <trkpt lat="48.76416" lon="2.16294">
        <ele>99.2</ele>
        <time>2022-03-19T12:27:50.000+01:00</time>
      </trkpt>
      <trkpt lat="48.76415" lon="2.16278">
        <ele>98.1</ele>
        <time>2022-03-19T12:27:57.000+01:00</time>
      </trkpt>
      <trkpt lat="48.7642" lon="2.16253">
        <ele>91.9</ele>
        <time>2022-03-19T12:28:05.000+01:00</time>
      </trkpt>
      <trkpt lat="48.76417" lon="2.16232">
        <ele>94.9</ele>
        <time>2022-03-19T12:28:15.000+01:00</time>
      </trkpt>
      <trkpt lat="48.76418" lon="2.16216">
        <ele>96.7</ele>
        <time>2022-03-19T12:28:25.000+01:00</time>
      </trkpt>
      <trkpt lat="48.76425" lon="2.16186">
        <ele>95.2</ele>
        <time>2022-03-19T12:28:40.000+01:00</time>
      </trkpt>
      <trkpt lat="48.76432" lon="2.16173">
        <ele>87.5</ele>
        <time>2022-03-19T12:28:50.000+01:00</time>
      </trkpt>
      <trkpt lat="48.764" lon="2.16161">
        <ele>82</ele>
        <time>2022-03-19T12:29:12.000+01:00</time>
      </trkpt>
      <trkpt lat="48.76429" lon="2.16167">
        <ele>62.4</ele>
        <time>2022-03-19T12:29:21.000+01:00</time>
      </trkpt>
      <trkpt lat="48.76439" lon="2.16167">
        <ele>62.1</ele>
        <time>2022-03-19T12:29:25.000+01:00</time>
      </trkpt>
      <trkpt lat="48.76448" lon="2.16165">
        <ele>90.9</ele>
        <time>2022-03-19T12:29:30.000+01:00</time>
      </trkpt>
      <trkpt lat="48.76447" lon="2.16153">
        <ele>90.9</ele>
        <time>2022-03-19T12:29:45.000+01:00</time>
      </trkpt>
      <trkpt lat="48.76442" lon="2.16133">
        <ele>92.1</ele>
        <time>2022-03-19T12:30:06.000+01:00</time>
      </trkpt>
      <trkpt lat="48.76452" lon="2.16131">
        <ele>90.7</ele>
        <time>2022-03-19T12:30:12.000+01:00</time>
      </trkpt>
      <trkpt lat="48.76463" lon="2.1612">
        <ele>89.9</ele>
        <time>2022-03-19T12:30:30.000+01:00</time>
      </trkpt>
      <trkpt lat="48.76459" lon="2.16112">
        <ele>73.7</ele>
        <time>2022-03-19T12:30:45.000+01:00</time>
      </trkpt>
      <trkpt lat="48.76474" lon="2.1611">
        <ele>77.7</ele>
        <time>2022-03-19T12:31:00.000+01:00</time>
      </trkpt>
      <trkpt lat="48.76477" lon="2.16099">
        <ele>75.9</ele>
        <time>2022-03-19T12:31:10.000+01:00</time>
      </trkpt>
      <trkpt lat="48.76493" lon="2.16086">
        <ele>80.6</ele>
        <time>2022-03-19T12:31:20.000+01:00</time>
      </trkpt>
      <trkpt lat="48.76502" lon="2.16082">
        <ele>86.6</ele>
        <time>2022-03-19T12:31:27.000+01:00</time>
      </trkpt>
      <trkpt lat="48.76507" lon="2.1608">
        <ele>99.7</ele>
        <time>2022-03-19T12:31:38.000+01:00</time>
      </trkpt>
      <trkpt lat="48.765" lon="2.16083">
        <ele>90</ele>
        <time>2022-03-19T12:31:50.000+01:00</time>
      </trkpt>
      <trkpt lat="48.7652" lon="2.16066">
        <ele>114.4</ele>
        <time>2022-03-19T12:32:05.000+01:00</time>
      </trkpt>
      <trkpt lat="48.76525" lon="2.16052">
        <ele>117.7</ele>
        <time>2022-03-19T12:32:22.000+01:00</time>
      </trkpt>
      <trkpt lat="48.76522" lon="2.16031">
        <ele>113.2</ele>
        <time>2022-03-19T12:32:40.000+01:00</time>
      </trkpt>
      <trkpt lat="48.76512" lon="2.16028">
        <ele>113.2</ele>
        <time>2022-03-19T12:32:45.000+01:00</time>
      </trkpt>
      <trkpt lat="48.76503" lon="2.16021">
        <ele>90</ele>
        <time>2022-03-19T12:32:50.000+01:00</time>
      </trkpt>
      <trkpt lat="48.76515" lon="2.16002">
        <ele>97.4</ele>
        <time>2022-03-19T12:33:00.000+01:00</time>
      </trkpt>
      <trkpt lat="48.76516" lon="2.15984">
        <ele>100.1</ele>
        <time>2022-03-19T12:33:10.000+01:00</time>
      </trkpt>
      <trkpt lat="48.76527" lon="2.15969">
        <ele>92.3</ele>
        <time>2022-03-19T12:33:20.000+01:00</time>
      </trkpt>
      <trkpt lat="48.76531" lon="2.15956">
        <ele>99.5</ele>
        <time>2022-03-19T12:33:30.000+01:00</time>
      </trkpt>
      <trkpt lat="48.76543" lon="2.15951">
        <ele>99.1</ele>
        <time>2022-03-19T12:33:35.000+01:00</time>
      </trkpt>
      <trkpt lat="48.76552" lon="2.15944">
        <ele>89.1</ele>
        <time>2022-03-19T12:33:40.000+01:00</time>
      </trkpt>
      <trkpt lat="48.76552" lon="2.15922">
        <ele>113.8</ele>
        <time>2022-03-19T12:33:50.000+01:00</time>
      </trkpt>
      <trkpt lat="48.76559" lon="2.1591">
        <ele>90</ele>
        <time>2022-03-19T12:34:01.000+01:00</time>
      </trkpt>
      <trkpt lat="48.76564" lon="2.15895">
        <ele>103.9</ele>
        <time>2022-03-19T12:34:15.000+01:00</time>
      </trkpt>
      <trkpt lat="48.76573" lon="2.15909">
        <ele>96.5</ele>
        <time>2022-03-19T12:34:25.000+01:00</time>
      </trkpt>
      <trkpt lat="48.76583" lon="2.15923">
        <ele>95.5</ele>
        <time>2022-03-19T12:34:35.000+01:00</time>
      </trkpt>
      <trkpt lat="48.766" lon="2.15933">
        <ele>82.6</ele>
        <time>2022-03-19T12:34:45.000+01:00</time>
      </trkpt>
      <trkpt lat="48.76611" lon="2.1593">
        <ele>89</ele>
        <time>2022-03-19T12:34:50.000+01:00</time>
      </trkpt>
      <trkpt lat="48.76622" lon="2.15923">
        <ele>89.4</ele>
        <time>2022-03-19T12:35:00.000+01:00</time>
      </trkpt>
      <trkpt lat="48.76624" lon="2.15911">
        <ele>106</ele>
        <time>2022-03-19T12:35:15.000+01:00</time>
      </trkpt>
      <trkpt lat="48.76631" lon="2.15896">
        <ele>111.3</ele>
        <time>2022-03-19T12:35:25.000+01:00</time>
      </trkpt>
      <trkpt lat="48.76641" lon="2.15889">
        <ele>108.8</ele>
        <time>2022-03-19T12:35:30.000+01:00</time>
      </trkpt>
      <trkpt lat="48.76648" lon="2.15878">
        <ele>114.6</ele>
        <time>2022-03-19T12:35:40.000+01:00</time>
      </trkpt>
      <trkpt lat="48.76657" lon="2.15868">
        <ele>118.2</ele>
        <time>2022-03-19T12:35:50.000+01:00</time>
      </trkpt>
      <trkpt lat="48.7666" lon="2.15841">
        <ele>121.8</ele>
        <time>2022-03-19T12:36:10.000+01:00</time>
      </trkpt>
      <trkpt lat="48.7668" lon="2.15807">
        <ele>120.6</ele>
        <time>2022-03-19T12:36:25.000+01:00</time>
      </trkpt>
      <trkpt lat="48.76686" lon="2.15791">
        <ele>121.4</ele>
        <time>2022-03-19T12:36:35.000+01:00</time>
      </trkpt>
      <trkpt lat="48.76686" lon="2.15773">
        <ele>126.1</ele>
        <time>2022-03-19T12:36:45.000+01:00</time>
      </trkpt>
      <trkpt lat="48.76691" lon="2.15754">
        <ele>125.4</ele>
        <time>2022-03-19T12:36:55.000+01:00</time>
      </trkpt>
      <trkpt lat="48.76694" lon="2.15733">
        <ele>124.8</ele>
        <time>2022-03-19T12:37:05.000+01:00</time>
      </trkpt>
      <trkpt lat="48.76696" lon="2.15711">
        <ele>124</ele>
        <time>2022-03-19T12:37:15.000+01:00</time>
      </trkpt>
      <trkpt lat="48.76695" lon="2.15681">
        <ele>121</ele>
        <time>2022-03-19T12:37:26.000+01:00</time>
      </trkpt>
      <trkpt lat="48.76695" lon="2.15664">
        <ele>121.7</ele>
        <time>2022-03-19T12:37:35.000+01:00</time>
      </trkpt>
      <trkpt lat="48.76691" lon="2.15649">
        <ele>124.6</ele>
        <time>2022-03-19T12:37:45.000+01:00</time>
      </trkpt>
      <trkpt lat="48.767" lon="2.15628">
        <ele>121.5</ele>
        <time>2022-03-19T12:37:56.000+01:00</time>
      </trkpt>
      <trkpt lat="48.76704" lon="2.15606">
        <ele>122.8</ele>
        <time>2022-03-19T12:38:10.000+01:00</time>
      </trkpt>
      <trkpt lat="48.76698" lon="2.15583">
        <ele>118.2</ele>
        <time>2022-03-19T12:38:20.000+01:00</time>
      </trkpt>
      <trkpt lat="48.76691" lon="2.15566">
        <ele>113.7</ele>
        <time>2022-03-19T12:38:30.000+01:00</time>
      </trkpt>
      <trkpt lat="48.76687" lon="2.15556">
        <ele>113.8</ele>
        <time>2022-03-19T12:38:40.000+01:00</time>
      </trkpt>
      <trkpt lat="48.76687" lon="2.15557">
        <ele>111.2</ele>
        <time>2022-03-19T12:38:50.000+01:00</time>
      </trkpt>
      <trkpt lat="48.76682" lon="2.1555">
        <ele>104.4</ele>
        <time>2022-03-19T12:39:05.000+01:00</time>
      </trkpt>
      <trkpt lat="48.76676" lon="2.15552">
        <ele>104.2</ele>
        <time>2022-03-19T12:39:25.000+01:00</time>
      </trkpt>
      <trkpt lat="48.76666" lon="2.15544">
        <ele>105.5</ele>
        <time>2022-03-19T12:39:35.000+01:00</time>
      </trkpt>
      <trkpt lat="48.76652" lon="2.15536">
        <ele>108.6</ele>
        <time>2022-03-19T12:39:45.000+01:00</time>
      </trkpt>
      <trkpt lat="48.76645" lon="2.15515">
        <ele>111.9</ele>
        <time>2022-03-19T12:40:00.000+01:00</time>
      </trkpt>
      <trkpt lat="48.76645" lon="2.15497">
        <ele>112.7</ele>
        <time>2022-03-19T12:40:05.000+01:00</time>
      </trkpt>
      <trkpt lat="48.76644" lon="2.15478">
        <ele>115.7</ele>
        <time>2022-03-19T12:40:15.000+01:00</time>
      </trkpt>
      <trkpt lat="48.76648" lon="2.15457">
        <ele>115.3</ele>
        <time>2022-03-19T12:40:25.000+01:00</time>
      </trkpt>
      <trkpt lat="48.76657" lon="2.15447">
        <ele>112.5</ele>
        <time>2022-03-19T12:40:30.000+01:00</time>
      </trkpt>
      <trkpt lat="48.76663" lon="2.15428">
        <ele>109.2</ele>
        <time>2022-03-19T12:40:40.000+01:00</time>
      </trkpt>
      <trkpt lat="48.76673" lon="2.15415">
        <ele>108</ele>
        <time>2022-03-19T12:40:50.000+01:00</time>
      </trkpt>
      <trkpt lat="48.76681" lon="2.15395">
        <ele>107</ele>
        <time>2022-03-19T12:41:00.000+01:00</time>
      </trkpt>
      <trkpt lat="48.76681" lon="2.15378">
        <ele>108.8</ele>
        <time>2022-03-19T12:41:16.000+01:00</time>
      </trkpt>
      <trkpt lat="48.76668" lon="2.15366">
        <ele>112.9</ele>
        <time>2022-03-19T12:41:25.000+01:00</time>
      </trkpt>
      <trkpt lat="48.76671" lon="2.15364">
        <ele>111.2</ele>
        <time>2022-03-19T12:41:35.000+01:00</time>
      </trkpt>
      <trkpt lat="48.76676" lon="2.15359">
        <ele>97.5</ele>
        <time>2022-03-19T12:42:15.000+01:00</time>
      </trkpt>
      <trkpt lat="48.76686" lon="2.15354">
        <ele>83.5</ele>
        <time>2022-03-19T12:42:20.000+01:00</time>
      </trkpt>
      <trkpt lat="48.76673" lon="2.15362">
        <ele>88.7</ele>
        <time>2022-03-19T12:42:30.000+01:00</time>
      </trkpt>
      <trkpt lat="48.76663" lon="2.15367">
        <ele>81.4</ele>
        <time>2022-03-19T12:42:50.000+01:00</time>
      </trkpt>
      <trkpt lat="48.76664" lon="2.1535">
        <ele>85.2</ele>
        <time>2022-03-19T12:43:02.000+01:00</time>
      </trkpt>
      <trkpt lat="48.76675" lon="2.15353">
        <ele>86.3</ele>
        <time>2022-03-19T12:43:05.000+01:00</time>
      </trkpt>
      <trkpt lat="48.76702" lon="2.15354">
        <ele>87.3</ele>
        <time>2022-03-19T12:43:10.000+01:00</time>
      </trkpt>
      <trkpt lat="48.76714" lon="2.15349">
        <ele>88.1</ele>
        <time>2022-03-19T12:43:15.000+01:00</time>
      </trkpt>
      <trkpt lat="48.76709" lon="2.15362">
        <ele>82.3</ele>
        <time>2022-03-19T12:43:25.000+01:00</time>
      </trkpt>
      <trkpt lat="48.7668" lon="2.15365">
        <ele>98.9</ele>
        <time>2022-03-19T12:43:30.000+01:00</time>
      </trkpt>
      <trkpt lat="48.76686" lon="2.15357">
        <ele>84.9</ele>
        <time>2022-03-19T12:43:40.000+01:00</time>
      </trkpt>
      <trkpt lat="48.76705" lon="2.1536">
        <ele>85.1</ele>
        <time>2022-03-19T12:43:50.000+01:00</time>
      </trkpt>
      <trkpt lat="48.76744" lon="2.15347">
        <ele>85.8</ele>
        <time>2022-03-19T12:43:55.000+01:00</time>
      </trkpt>
      <trkpt lat="48.76685" lon="2.15361">
        <ele>104.8</ele>
        <time>2022-03-19T12:44:00.000+01:00</time>
      </trkpt>
      <trkpt lat="48.76669" lon="2.15364">
        <ele>120.1</ele>
        <time>2022-03-19T12:44:05.000+01:00</time>
      </trkpt>
      <trkpt lat="48.76651" lon="2.1537">
        <ele>145.6</ele>
        <time>2022-03-19T12:44:10.000+01:00</time>
      </trkpt>
      <trkpt lat="48.76646" lon="2.15388">
        <ele>176.5</ele>
        <time>2022-03-19T12:44:20.000+01:00</time>
      </trkpt>
      <trkpt lat="48.76633" lon="2.15342">
        <ele>171.4</ele>
        <time>2022-03-19T12:44:50.000+01:00</time>
      </trkpt>
      <trkpt lat="48.76667" lon="2.15338">
        <ele>96.8</ele>
        <time>2022-03-19T12:44:55.000+01:00</time>
      </trkpt>
      <trkpt lat="48.76678" lon="2.15342">
        <ele>81.8</ele>
        <time>2022-03-19T12:45:00.000+01:00</time>
      </trkpt>
      <trkpt lat="48.76677" lon="2.15356">
        <ele>82.5</ele>
        <time>2022-03-19T12:45:05.000+01:00</time>
      </trkpt>
      <trkpt lat="48.76667" lon="2.15356">
        <ele>68.6</ele>
        <time>2022-03-19T12:45:15.000+01:00</time>
      </trkpt>
      <trkpt lat="48.76669" lon="2.15361">
        <ele>73.9</ele>
        <time>2022-03-19T12:45:30.000+01:00</time>
      </trkpt>
      <trkpt lat="48.76668" lon="2.15373">
        <ele>102.7</ele>
        <time>2022-03-19T12:45:45.000+01:00</time>
      </trkpt>
      <trkpt lat="48.76673" lon="2.1537">
        <ele>102</ele>
        <time>2022-03-19T12:46:02.000+01:00</time>
      </trkpt>
      <trkpt lat="48.76677" lon="2.15355">
        <ele>100</ele>
        <time>2022-03-19T12:46:05.000+01:00</time>
      </trkpt>
      <trkpt lat="48.76698" lon="2.15342">
        <ele>74.9</ele>
        <time>2022-03-19T12:46:15.000+01:00</time>
      </trkpt>
      <trkpt lat="48.76697" lon="2.15345">
        <ele>77.3</ele>
        <time>2022-03-19T12:46:30.000+01:00</time>
      </trkpt>
      <trkpt lat="48.76682" lon="2.15354">
        <ele>106.4</ele>
        <time>2022-03-19T12:46:40.000+01:00</time>
      </trkpt>
      <trkpt lat="48.76689" lon="2.15352">
        <ele>88.6</ele>
        <time>2022-03-19T12:46:50.000+01:00</time>
      </trkpt>
      <trkpt lat="48.76689" lon="2.15356">
        <ele>96.6</ele>
        <time>2022-03-19T12:47:05.000+01:00</time>
      </trkpt>
      <trkpt lat="48.76701" lon="2.15357">
        <ele>93.8</ele>
        <time>2022-03-19T12:47:15.000+01:00</time>
      </trkpt>
      <trkpt lat="48.76707" lon="2.15347">
        <ele>90.2</ele>
        <time>2022-03-19T12:47:25.000+01:00</time>
      </trkpt>
      <trkpt lat="48.76698" lon="2.15343">
        <ele>89.5</ele>
        <time>2022-03-19T12:47:35.000+01:00</time>
      </trkpt>
      <trkpt lat="48.76714" lon="2.15355">
        <ele>95.8</ele>
        <time>2022-03-19T12:48:15.000+01:00</time>
      </trkpt>
      <trkpt lat="48.76693" lon="2.1535">
        <ele>97.1</ele>
        <time>2022-03-19T12:48:40.000+01:00</time>
      </trkpt>
      <trkpt lat="48.76684" lon="2.15356">
        <ele>125.7</ele>
        <time>2022-03-19T12:48:45.000+01:00</time>
      </trkpt>
      <trkpt lat="48.76665" lon="2.15361">
        <ele>119.8</ele>
        <time>2022-03-19T12:48:50.000+01:00</time>
      </trkpt>
      <trkpt lat="48.76654" lon="2.15367">
        <ele>121.4</ele>
        <time>2022-03-19T12:48:55.000+01:00</time>
      </trkpt>
      <trkpt lat="48.76672" lon="2.15363">
        <ele>88.4</ele>
        <time>2022-03-19T12:49:05.000+01:00</time>
      </trkpt>
      <trkpt lat="48.7668" lon="2.15366">
        <ele>101.5</ele>
        <time>2022-03-19T12:49:20.000+01:00</time>
      </trkpt>
      <trkpt lat="48.76682" lon="2.1537">
        <ele>102.9</ele>
        <time>2022-03-19T12:49:40.000+01:00</time>
      </trkpt>
      <trkpt lat="48.76693" lon="2.15364">
        <ele>102.6</ele>
        <time>2022-03-19T12:49:50.000+01:00</time>
      </trkpt>
      <trkpt lat="48.76701" lon="2.15364">
        <ele>102</ele>
        <time>2022-03-19T12:50:00.000+01:00</time>
      </trkpt>
      <trkpt lat="48.7669" lon="2.15353">
        <ele>94.2</ele>
        <time>2022-03-19T12:50:15.000+01:00</time>
      </trkpt>
      <trkpt lat="48.76691" lon="2.15347">
        <ele>93.7</ele>
        <time>2022-03-19T12:50:30.000+01:00</time>
      </trkpt>
      <trkpt lat="48.76696" lon="2.15353">
        <ele>93.7</ele>
        <time>2022-03-19T12:50:45.000+01:00</time>
      </trkpt>
      <trkpt lat="48.76681" lon="2.15348">
        <ele>91.9</ele>
        <time>2022-03-19T12:50:55.000+01:00</time>
      </trkpt>
      <trkpt lat="48.76696" lon="2.15358">
        <ele>84.2</ele>
        <time>2022-03-19T12:51:20.000+01:00</time>
      </trkpt>
      <trkpt lat="48.76692" lon="2.15348">
        <ele>112.4</ele>
        <time>2022-03-19T12:51:35.000+01:00</time>
      </trkpt>
      <trkpt lat="48.76696" lon="2.15349">
        <ele>126.4</ele>
        <time>2022-03-19T12:51:50.000+01:00</time>
      </trkpt>
      <trkpt lat="48.76694" lon="2.15347">
        <ele>114.9</ele>
        <time>2022-03-19T12:52:05.000+01:00</time>
      </trkpt>
      <trkpt lat="48.7669" lon="2.15353">
        <ele>96</ele>
        <time>2022-03-19T12:52:20.000+01:00</time>
      </trkpt>
      <trkpt lat="48.76686" lon="2.15353">
        <ele>97.7</ele>
        <time>2022-03-19T12:52:30.000+01:00</time>
      </trkpt>
      <trkpt lat="48.76676" lon="2.15353">
        <ele>94.9</ele>
        <time>2022-03-19T12:52:40.000+01:00</time>
      </trkpt>
      <trkpt lat="48.76704" lon="2.15362">
        <ele>100.4</ele>
        <time>2022-03-19T12:52:50.000+01:00</time>
      </trkpt>
      <trkpt lat="48.76718" lon="2.15368">
        <ele>94.9</ele>
        <time>2022-03-19T12:53:00.000+01:00</time>
      </trkpt>
      <trkpt lat="48.76723" lon="2.15361">
        <ele>101.3</ele>
        <time>2022-03-19T12:53:15.000+01:00</time>
      </trkpt>
      <trkpt lat="48.76718" lon="2.15368">
        <ele>90.5</ele>
        <time>2022-03-19T12:53:35.000+01:00</time>
      </trkpt>
      <trkpt lat="48.76707" lon="2.15366">
        <ele>92</ele>
        <time>2022-03-19T12:53:40.000+01:00</time>
      </trkpt>
      <trkpt lat="48.76698" lon="2.15363">
        <ele>92.9</ele>
        <time>2022-03-19T12:53:51.000+01:00</time>
      </trkpt>
      <trkpt lat="48.76708" lon="2.15362">
        <ele>89.7</ele>
        <time>2022-03-19T12:53:55.000+01:00</time>
      </trkpt>
      <trkpt lat="48.76711" lon="2.15363">
        <ele>84.7</ele>
        <time>2022-03-19T12:54:10.000+01:00</time>
      </trkpt>
      <trkpt lat="48.76707" lon="2.15363">
        <ele>90.8</ele>
        <time>2022-03-19T12:54:30.000+01:00</time>
      </trkpt>
      <trkpt lat="48.76692" lon="2.15364">
        <ele>91.4</ele>
        <time>2022-03-19T12:54:35.000+01:00</time>
      </trkpt>
      <trkpt lat="48.76683" lon="2.15363">
        <ele>92.9</ele>
        <time>2022-03-19T12:54:40.000+01:00</time>
      </trkpt>
      <trkpt lat="48.76677" lon="2.15362">
        <ele>96.5</ele>
        <time>2022-03-19T12:54:55.000+01:00</time>
      </trkpt>
      <trkpt lat="48.76689" lon="2.15358">
        <ele>97.2</ele>
        <time>2022-03-19T12:55:05.000+01:00</time>
      </trkpt>
      <trkpt lat="48.76698" lon="2.15364">
        <ele>86.2</ele>
        <time>2022-03-19T12:55:15.000+01:00</time>
      </trkpt>
      <trkpt lat="48.76695" lon="2.15361">
        <ele>90.5</ele>
        <time>2022-03-19T12:55:25.000+01:00</time>
      </trkpt>
      <trkpt lat="48.76682" lon="2.15361">
        <ele>90.1</ele>
        <time>2022-03-19T12:55:40.000+01:00</time>
      </trkpt>
      <trkpt lat="48.76678" lon="2.15357">
        <ele>95.1</ele>
        <time>2022-03-19T12:56:00.000+01:00</time>
      </trkpt>
      <trkpt lat="48.76676" lon="2.15367">
        <ele>94.4</ele>
        <time>2022-03-19T12:56:10.000+01:00</time>
      </trkpt>
      <trkpt lat="48.76685" lon="2.15362">
        <ele>93.9</ele>
        <time>2022-03-19T12:56:30.000+01:00</time>
      </trkpt>
      <trkpt lat="48.76681" lon="2.15368">
        <ele>94.4</ele>
        <time>2022-03-19T12:56:50.000+01:00</time>
      </trkpt>
      <trkpt lat="48.76691" lon="2.15367">
        <ele>97.2</ele>
        <time>2022-03-19T12:57:00.000+01:00</time>
      </trkpt>
      <trkpt lat="48.76698" lon="2.15362">
        <ele>104.3</ele>
        <time>2022-03-19T12:57:15.000+01:00</time>
      </trkpt>
      <trkpt lat="48.76686" lon="2.15355">
        <ele>103</ele>
        <time>2022-03-19T12:57:25.000+01:00</time>
      </trkpt>
      <trkpt lat="48.7667" lon="2.15351">
        <ele>105.3</ele>
        <time>2022-03-19T12:57:30.000+01:00</time>
      </trkpt>
      <trkpt lat="48.76666" lon="2.15354">
        <ele>107.6</ele>
        <time>2022-03-19T12:57:40.000+01:00</time>
      </trkpt>
      <trkpt lat="48.7668" lon="2.15354">
        <ele>107.1</ele>
        <time>2022-03-19T12:57:50.000+01:00</time>
      </trkpt>
      <trkpt lat="48.76695" lon="2.15343">
        <ele>103.2</ele>
        <time>2022-03-19T12:57:55.000+01:00</time>
      </trkpt>
      <trkpt lat="48.76677" lon="2.15344">
        <ele>110.8</ele>
        <time>2022-03-19T12:58:00.000+01:00</time>
      </trkpt>
      <trkpt lat="48.76683" lon="2.15353">
        <ele>107.4</ele>
        <time>2022-03-19T12:58:10.000+01:00</time>
      </trkpt>
      <trkpt lat="48.76692" lon="2.15362">
        <ele>110.8</ele>
        <time>2022-03-19T12:58:20.000+01:00</time>
      </trkpt>
      <trkpt lat="48.76691" lon="2.1537">
        <ele>116.5</ele>
        <time>2022-03-19T12:58:30.000+01:00</time>
      </trkpt>
      <trkpt lat="48.76685" lon="2.15371">
        <ele>123.5</ele>
        <time>2022-03-19T12:58:50.000+01:00</time>
      </trkpt>
      <trkpt lat="48.76672" lon="2.15374">
        <ele>127.8</ele>
        <time>2022-03-19T12:59:00.000+01:00</time>
      </trkpt>
      <trkpt lat="48.76652" lon="2.15375">
        <ele>131.5</ele>
        <time>2022-03-19T12:59:30.000+01:00</time>
      </trkpt>
      <trkpt lat="48.767" lon="2.15388">
        <ele>127.2</ele>
        <time>2022-03-19T12:59:35.000+01:00</time>
      </trkpt>
      <trkpt lat="48.76675" lon="2.15377">
        <ele>121</ele>
        <time>2022-03-19T12:59:40.000+01:00</time>
      </trkpt>
      <trkpt lat="48.76652" lon="2.15374">
        <ele>112.2</ele>
        <time>2022-03-19T12:59:45.000+01:00</time>
      </trkpt>
      <trkpt lat="48.76663" lon="2.15378">
        <ele>111.1</ele>
        <time>2022-03-19T12:59:50.000+01:00</time>
      </trkpt>
      <trkpt lat="48.76669" lon="2.15367">
        <ele>105.1</ele>
        <time>2022-03-19T13:00:05.000+01:00</time>
      </trkpt>
      <trkpt lat="48.76679" lon="2.15361">
        <ele>94.5</ele>
        <time>2022-03-19T13:00:15.000+01:00</time>
      </trkpt>
      <trkpt lat="48.76667" lon="2.15356">
        <ele>93.8</ele>
        <time>2022-03-19T13:00:30.000+01:00</time>
      </trkpt>
      <trkpt lat="48.76672" lon="2.15351">
        <ele>101.5</ele>
        <time>2022-03-19T13:00:40.000+01:00</time>
      </trkpt>
      <trkpt lat="48.76669" lon="2.15357">
        <ele>95.6</ele>
        <time>2022-03-19T13:01:05.000+01:00</time>
      </trkpt>
      <trkpt lat="48.76671" lon="2.15354">
        <ele>93.7</ele>
        <time>2022-03-19T13:01:25.000+01:00</time>
      </trkpt>
      <trkpt lat="48.7668" lon="2.15364">
        <ele>98.8</ele>
        <time>2022-03-19T13:01:40.000+01:00</time>
      </trkpt>
      <trkpt lat="48.76685" lon="2.15376">
        <ele>98.7</ele>
        <time>2022-03-19T13:01:50.000+01:00</time>
      </trkpt>
      <trkpt lat="48.76679" lon="2.15376">
        <ele>105.2</ele>
        <time>2022-03-19T13:02:05.000+01:00</time>
      </trkpt>
      <trkpt lat="48.76682" lon="2.15365">
        <ele>110.2</ele>
        <time>2022-03-19T13:02:15.000+01:00</time>
      </trkpt>
      <trkpt lat="48.7668" lon="2.15353">
        <ele>113.4</ele>
        <time>2022-03-19T13:02:30.000+01:00</time>
      </trkpt>
      <trkpt lat="48.76676" lon="2.15365">
        <ele>116.1</ele>
        <time>2022-03-19T13:02:40.000+01:00</time>
      </trkpt>
      <trkpt lat="48.76689" lon="2.15362">
        <ele>110.5</ele>
        <time>2022-03-19T13:02:55.000+01:00</time>
      </trkpt>
      <trkpt lat="48.76691" lon="2.15361">
        <ele>114.1</ele>
        <time>2022-03-19T13:03:05.000+01:00</time>
      </trkpt>
      <trkpt lat="48.767" lon="2.15362">
        <ele>120.1</ele>
        <time>2022-03-19T13:03:25.000+01:00</time>
      </trkpt>
      <trkpt lat="48.76701" lon="2.15364">
        <ele>116</ele>
        <time>2022-03-19T13:03:50.000+01:00</time>
      </trkpt>
      <trkpt lat="48.76692" lon="2.15358">
        <ele>113.7</ele>
        <time>2022-03-19T13:03:55.000+01:00</time>
      </trkpt>
      <trkpt lat="48.76671" lon="2.15351">
        <ele>112.3</ele>
        <time>2022-03-19T13:04:00.000+01:00</time>
      </trkpt>
      <trkpt lat="48.76678" lon="2.15344">
        <ele>91.5</ele>
        <time>2022-03-19T13:04:15.000+01:00</time>
      </trkpt>
      <trkpt lat="48.76679" lon="2.15351">
        <ele>89.9</ele>
        <time>2022-03-19T13:04:30.000+01:00</time>
      </trkpt>
      <trkpt lat="48.7667" lon="2.15347">
        <ele>96.1</ele>
        <time>2022-03-19T13:04:45.000+01:00</time>
      </trkpt>
      <trkpt lat="48.76669" lon="2.15349">
        <ele>101.7</ele>
        <time>2022-03-19T13:06:15.000+01:00</time>
      </trkpt>
      <trkpt lat="48.7666" lon="2.15344">
        <ele>101.7</ele>
        <time>2022-03-19T13:06:25.000+01:00</time>
      </trkpt>
      <trkpt lat="48.7667" lon="2.15349">
        <ele>101.7</ele>
        <time>2022-03-19T13:06:40.000+01:00</time>
      </trkpt>
      <trkpt lat="48.76687" lon="2.15347">
        <ele>99.8</ele>
        <time>2022-03-19T13:09:45.000+01:00</time>
      </trkpt>
      <trkpt lat="48.76693" lon="2.15339">
        <ele>93.9</ele>
        <time>2022-03-19T13:10:00.000+01:00</time>
      </trkpt>
      <trkpt lat="48.76691" lon="2.15341">
        <ele>87.6</ele>
        <time>2022-03-19T13:10:35.000+01:00</time>
      </trkpt>
      <trkpt lat="48.76687" lon="2.15352">
        <ele>86.8</ele>
        <time>2022-03-19T13:12:10.000+01:00</time>
      </trkpt>
      <trkpt lat="48.7669" lon="2.15364">
        <ele>86.6</ele>
        <time>2022-03-19T13:12:30.000+01:00</time>
      </trkpt>
      <trkpt lat="48.76685" lon="2.15373">
        <ele>89</ele>
        <time>2022-03-19T13:12:45.000+01:00</time>
      </trkpt>
      <trkpt lat="48.76692" lon="2.15368">
        <ele>92.5</ele>
        <time>2022-03-19T13:12:55.000+01:00</time>
      </trkpt>
      <trkpt lat="48.76682" lon="2.15377">
        <ele>99.7</ele>
        <time>2022-03-19T13:13:05.000+01:00</time>
      </trkpt>
      <trkpt lat="48.76676" lon="2.15383">
        <ele>114.5</ele>
        <time>2022-03-19T13:13:15.000+01:00</time>
      </trkpt>
      <trkpt lat="48.76693" lon="2.15377">
        <ele>112.2</ele>
        <time>2022-03-19T13:13:25.000+01:00</time>
      </trkpt>
      <trkpt lat="48.76682" lon="2.1538">
        <ele>107.4</ele>
        <time>2022-03-19T13:13:40.000+01:00</time>
      </trkpt>
      <trkpt lat="48.76671" lon="2.15382">
        <ele>105.9</ele>
        <time>2022-03-19T13:13:45.000+01:00</time>
      </trkpt>
      <trkpt lat="48.76682" lon="2.1537">
        <ele>102.2</ele>
        <time>2022-03-19T13:14:00.000+01:00</time>
      </trkpt>
      <trkpt lat="48.76671" lon="2.15367">
        <ele>107.7</ele>
        <time>2022-03-19T13:14:15.000+01:00</time>
      </trkpt>
      <trkpt lat="48.76662" lon="2.15372">
        <ele>95.8</ele>
        <time>2022-03-19T13:14:35.000+01:00</time>
      </trkpt>
      <trkpt lat="48.76674" lon="2.15377">
        <ele>109.3</ele>
        <time>2022-03-19T13:14:55.000+01:00</time>
      </trkpt>
      <trkpt lat="48.76673" lon="2.15378">
        <ele>111.6</ele>
        <time>2022-03-19T13:15:05.000+01:00</time>
      </trkpt>
      <trkpt lat="48.76682" lon="2.15368">
        <ele>108.2</ele>
        <time>2022-03-19T13:15:10.000+01:00</time>
      </trkpt>
      <trkpt lat="48.76681" lon="2.15352">
        <ele>104.2</ele>
        <time>2022-03-19T13:15:20.000+01:00</time>
      </trkpt>
      <trkpt lat="48.76681" lon="2.15354">
        <ele>116.9</ele>
        <time>2022-03-19T13:15:40.000+01:00</time>
      </trkpt>
      <trkpt lat="48.7667" lon="2.1535">
        <ele>109.5</ele>
        <time>2022-03-19T13:15:50.000+01:00</time>
      </trkpt>
      <trkpt lat="48.76685" lon="2.15348">
        <ele>103.1</ele>
        <time>2022-03-19T13:16:00.000+01:00</time>
      </trkpt>
      <trkpt lat="48.76696" lon="2.15351">
        <ele>102.6</ele>
        <time>2022-03-19T13:16:15.000+01:00</time>
      </trkpt>
      <trkpt lat="48.76707" lon="2.15358">
        <ele>103.7</ele>
        <time>2022-03-19T13:16:25.000+01:00</time>
      </trkpt>
      <trkpt lat="48.76703" lon="2.15355">
        <ele>109</ele>
        <time>2022-03-19T13:16:45.000+01:00</time>
      </trkpt>
      <trkpt lat="48.76693" lon="2.15352">
        <ele>106.8</ele>
        <time>2022-03-19T13:17:00.000+01:00</time>
      </trkpt>
      <trkpt lat="48.76683" lon="2.1536">
        <ele>111.1</ele>
        <time>2022-03-19T13:17:11.000+01:00</time>
      </trkpt>
      <trkpt lat="48.76688" lon="2.15363">
        <ele>105.7</ele>
        <time>2022-03-19T13:17:35.000+01:00</time>
      </trkpt>
      <trkpt lat="48.76686" lon="2.15352">
        <ele>109.8</ele>
        <time>2022-03-19T13:17:50.000+01:00</time>
      </trkpt>
      <trkpt lat="48.76689" lon="2.1534">
        <ele>109</ele>
        <time>2022-03-19T13:18:00.000+01:00</time>
      </trkpt>
      <trkpt lat="48.76694" lon="2.1532">
        <ele>108.3</ele>
        <time>2022-03-19T13:18:10.000+01:00</time>
      </trkpt>
      <trkpt lat="48.76702" lon="2.15308">
        <ele>106.3</ele>
        <time>2022-03-19T13:18:15.000+01:00</time>
      </trkpt>
      <trkpt lat="48.76706" lon="2.15295">
        <ele>104</ele>
        <time>2022-03-19T13:18:20.000+01:00</time>
      </trkpt>
      <trkpt lat="48.76712" lon="2.15278">
        <ele>105</ele>
        <time>2022-03-19T13:18:30.000+01:00</time>
      </trkpt>
      <trkpt lat="48.76716" lon="2.15261">
        <ele>105.6</ele>
        <time>2022-03-19T13:18:40.000+01:00</time>
      </trkpt>
      <trkpt lat="48.76716" lon="2.15248">
        <ele>106.6</ele>
        <time>2022-03-19T13:18:50.000+01:00</time>
      </trkpt>
      <trkpt lat="48.76723" lon="2.15235">
        <ele>106</ele>
        <time>2022-03-19T13:19:00.000+01:00</time>
      </trkpt>
      <trkpt lat="48.7673" lon="2.15229">
        <ele>103</ele>
        <time>2022-03-19T13:19:15.000+01:00</time>
      </trkpt>
      <trkpt lat="48.76745" lon="2.15211">
        <ele>103.2</ele>
        <time>2022-03-19T13:19:25.000+01:00</time>
      </trkpt>
      <trkpt lat="48.76752" lon="2.15193">
        <ele>103.7</ele>
        <time>2022-03-19T13:19:35.000+01:00</time>
      </trkpt>
      <trkpt lat="48.76762" lon="2.15184">
        <ele>107.4</ele>
        <time>2022-03-19T13:19:45.000+01:00</time>
      </trkpt>
      <trkpt lat="48.76768" lon="2.15169">
        <ele>107.4</ele>
        <time>2022-03-19T13:19:55.000+01:00</time>
      </trkpt>
      <trkpt lat="48.7676" lon="2.15156">
        <ele>109.2</ele>
        <time>2022-03-19T13:20:05.000+01:00</time>
      </trkpt>
      <trkpt lat="48.76756" lon="2.15136">
        <ele>112.1</ele>
        <time>2022-03-19T13:20:15.000+01:00</time>
      </trkpt>
      <trkpt lat="48.7676" lon="2.15118">
        <ele>111.3</ele>
        <time>2022-03-19T13:20:25.000+01:00</time>
      </trkpt>
      <trkpt lat="48.76765" lon="2.15107">
        <ele>113.2</ele>
        <time>2022-03-19T13:20:30.000+01:00</time>
      </trkpt>
      <trkpt lat="48.76768" lon="2.15093">
        <ele>112.6</ele>
        <time>2022-03-19T13:20:35.000+01:00</time>
      </trkpt>
      <trkpt lat="48.76774" lon="2.15077">
        <ele>109.9</ele>
        <time>2022-03-19T13:20:45.000+01:00</time>
      </trkpt>
      <trkpt lat="48.76769" lon="2.15074">
        <ele>107</ele>
        <time>2022-03-19T13:21:00.000+01:00</time>
      </trkpt>
      <trkpt lat="48.76768" lon="2.15074">
        <ele>113.8</ele>
        <time>2022-03-19T13:21:20.000+01:00</time>
      </trkpt>
      <trkpt lat="48.76757" lon="2.15061">
        <ele>116</ele>
        <time>2022-03-19T13:21:30.000+01:00</time>
      </trkpt>
      <trkpt lat="48.7675" lon="2.15051">
        <ele>115.2</ele>
        <time>2022-03-19T13:21:40.000+01:00</time>
      </trkpt>
      <trkpt lat="48.7674" lon="2.15049">
        <ele>114.2</ele>
        <time>2022-03-19T13:21:45.000+01:00</time>
      </trkpt>
      <trkpt lat="48.76723" lon="2.1504">
        <ele>113</ele>
        <time>2022-03-19T13:21:55.000+01:00</time>
      </trkpt>
      <trkpt lat="48.76713" lon="2.15038">
        <ele>113.2</ele>
        <time>2022-03-19T13:22:00.000+01:00</time>
      </trkpt>
      <trkpt lat="48.76696" lon="2.15034">
        <ele>110.5</ele>
        <time>2022-03-19T13:22:05.000+01:00</time>
      </trkpt>
      <trkpt lat="48.76687" lon="2.15024">
        <ele>109.2</ele>
        <time>2022-03-19T13:22:15.000+01:00</time>
      </trkpt>
      <trkpt lat="48.7668" lon="2.15019">
        <ele>109.2</ele>
        <time>2022-03-19T13:22:30.000+01:00</time>
      </trkpt>
      <trkpt lat="48.7667" lon="2.15016">
        <ele>107.9</ele>
        <time>2022-03-19T13:22:45.000+01:00</time>
      </trkpt>
      <trkpt lat="48.76666" lon="2.15011">
        <ele>108.7</ele>
        <time>2022-03-19T13:23:00.000+01:00</time>
      </trkpt>
      <trkpt lat="48.76653" lon="2.15006">
        <ele>110</ele>
        <time>2022-03-19T13:23:10.000+01:00</time>
      </trkpt>
      <trkpt lat="48.76642" lon="2.15">
        <ele>109.3</ele>
        <time>2022-03-19T13:23:15.000+01:00</time>
      </trkpt>
      <trkpt lat="48.76633" lon="2.14993">
        <ele>109.9</ele>
        <time>2022-03-19T13:23:25.000+01:00</time>
      </trkpt>
      <trkpt lat="48.76621" lon="2.14985">
        <ele>112.6</ele>
        <time>2022-03-19T13:23:35.000+01:00</time>
      </trkpt>
      <trkpt lat="48.76613" lon="2.14977">
        <ele>115.6</ele>
        <time>2022-03-19T13:23:45.000+01:00</time>
      </trkpt>
      <trkpt lat="48.76603" lon="2.14976">
        <ele>112.5</ele>
        <time>2022-03-19T13:24:00.000+01:00</time>
      </trkpt>
      <trkpt lat="48.76597" lon="2.14982">
        <ele>112.8</ele>
        <time>2022-03-19T13:24:15.000+01:00</time>
      </trkpt>
      <trkpt lat="48.76601" lon="2.14964">
        <ele>115.2</ele>
        <time>2022-03-19T13:24:35.000+01:00</time>
      </trkpt>
      <trkpt lat="48.76613" lon="2.14949">
        <ele>115.4</ele>
        <time>2022-03-19T13:24:45.000+01:00</time>
      </trkpt>
      <trkpt lat="48.76614" lon="2.14935">
        <ele>116.3</ele>
        <time>2022-03-19T13:24:55.000+01:00</time>
      </trkpt>
      <trkpt lat="48.76618" lon="2.14918">
        <ele>107.9</ele>
        <time>2022-03-19T13:25:05.000+01:00</time>
      </trkpt>
      <trkpt lat="48.76625" lon="2.14905">
        <ele>107</ele>
        <time>2022-03-19T13:25:15.000+01:00</time>
      </trkpt>
      <trkpt lat="48.76638" lon="2.14889">
        <ele>107.7</ele>
        <time>2022-03-19T13:25:25.000+01:00</time>
      </trkpt>
      <trkpt lat="48.76648" lon="2.14879">
        <ele>104.4</ele>
        <time>2022-03-19T13:25:35.000+01:00</time>
      </trkpt>
      <trkpt lat="48.76659" lon="2.14866">
        <ele>102.1</ele>
        <time>2022-03-19T13:25:45.000+01:00</time>
      </trkpt>
      <trkpt lat="48.76667" lon="2.14858">
        <ele>100.7</ele>
        <time>2022-03-19T13:25:50.000+01:00</time>
      </trkpt>
      <trkpt lat="48.76677" lon="2.14846">
        <ele>100</ele>
        <time>2022-03-19T13:26:00.000+01:00</time>
      </trkpt>
      <trkpt lat="48.76688" lon="2.14832">
        <ele>100.3</ele>
        <time>2022-03-19T13:26:10.000+01:00</time>
      </trkpt>
      <trkpt lat="48.76699" lon="2.14818">
        <ele>99.8</ele>
        <time>2022-03-19T13:26:20.000+01:00</time>
      </trkpt>
      <trkpt lat="48.76709" lon="2.14804">
        <ele>100.3</ele>
        <time>2022-03-19T13:26:30.000+01:00</time>
      </trkpt>
      <trkpt lat="48.76718" lon="2.14789">
        <ele>100.6</ele>
        <time>2022-03-19T13:26:45.000+01:00</time>
      </trkpt>
      <trkpt lat="48.76725" lon="2.14778">
        <ele>100</ele>
        <time>2022-03-19T13:26:50.000+01:00</time>
      </trkpt>
      <trkpt lat="48.76734" lon="2.14766">
        <ele>99.5</ele>
        <time>2022-03-19T13:26:55.000+01:00</time>
      </trkpt>
      <trkpt lat="48.76741" lon="2.14756">
        <ele>99.2</ele>
        <time>2022-03-19T13:27:00.000+01:00</time>
      </trkpt>
      <trkpt lat="48.76749" lon="2.14744">
        <ele>101.5</ele>
        <time>2022-03-19T13:27:10.000+01:00</time>
      </trkpt>
      <trkpt lat="48.7676" lon="2.14741">
        <ele>103</ele>
        <time>2022-03-19T13:27:15.000+01:00</time>
      </trkpt>
      <trkpt lat="48.76767" lon="2.14724">
        <ele>103.7</ele>
        <time>2022-03-19T13:27:25.000+01:00</time>
      </trkpt>
      <trkpt lat="48.76771" lon="2.1471">
        <ele>105</ele>
        <time>2022-03-19T13:27:30.000+01:00</time>
      </trkpt>
      <trkpt lat="48.76775" lon="2.14689">
        <ele>110.9</ele>
        <time>2022-03-19T13:27:40.000+01:00</time>
      </trkpt>
      <trkpt lat="48.76763" lon="2.14687">
        <ele>111.7</ele>
        <time>2022-03-19T13:27:45.000+01:00</time>
      </trkpt>
      <trkpt lat="48.76772" lon="2.14675">
        <ele>114.5</ele>
        <time>2022-03-19T13:27:55.000+01:00</time>
      </trkpt>
      <trkpt lat="48.76781" lon="2.14668">
        <ele>113.9</ele>
        <time>2022-03-19T13:28:00.000+01:00</time>
      </trkpt>
      <trkpt lat="48.7679" lon="2.14659">
        <ele>112.4</ele>
        <time>2022-03-19T13:28:05.000+01:00</time>
      </trkpt>
      <trkpt lat="48.7679" lon="2.1465">
        <ele>112.7</ele>
        <time>2022-03-19T13:28:15.000+01:00</time>
      </trkpt>
      <trkpt lat="48.76801" lon="2.14639">
        <ele>113.6</ele>
        <time>2022-03-19T13:28:35.000+01:00</time>
      </trkpt>
      <trkpt lat="48.76811" lon="2.14631">
        <ele>115.7</ele>
        <time>2022-03-19T13:28:45.000+01:00</time>
      </trkpt>
      <trkpt lat="48.76811" lon="2.14617">
        <ele>119.3</ele>
        <time>2022-03-19T13:29:00.000+01:00</time>
      </trkpt>
      <trkpt lat="48.76818" lon="2.14607">
        <ele>123.3</ele>
        <time>2022-03-19T13:29:15.000+01:00</time>
      </trkpt>
      <trkpt lat="48.76839" lon="2.14582">
        <ele>126</ele>
        <time>2022-03-19T13:29:25.000+01:00</time>
      </trkpt>
      <trkpt lat="48.76836" lon="2.14568">
        <ele>123.1</ele>
        <time>2022-03-19T13:29:35.000+01:00</time>
      </trkpt>
      <trkpt lat="48.76833" lon="2.14555">
        <ele>120.8</ele>
        <time>2022-03-19T13:29:55.000+01:00</time>
      </trkpt>
      <trkpt lat="48.76835" lon="2.14536">
        <ele>118.6</ele>
        <time>2022-03-19T13:30:05.000+01:00</time>
      </trkpt>
      <trkpt lat="48.76832" lon="2.14516">
        <ele>114.4</ele>
        <time>2022-03-19T13:30:15.000+01:00</time>
      </trkpt>
      <trkpt lat="48.76821" lon="2.14497">
        <ele>111.4</ele>
        <time>2022-03-19T13:30:25.000+01:00</time>
      </trkpt>
      <trkpt lat="48.7682" lon="2.14483">
        <ele>111.1</ele>
        <time>2022-03-19T13:30:35.000+01:00</time>
      </trkpt>
      <trkpt lat="48.76821" lon="2.14469">
        <ele>110.2</ele>
        <time>2022-03-19T13:30:45.000+01:00</time>
      </trkpt>
      <trkpt lat="48.76831" lon="2.14453">
        <ele>111.8</ele>
        <time>2022-03-19T13:30:55.000+01:00</time>
      </trkpt>
      <trkpt lat="48.76828" lon="2.14438">
        <ele>112.9</ele>
        <time>2022-03-19T13:31:05.000+01:00</time>
      </trkpt>
      <trkpt lat="48.76839" lon="2.14416">
        <ele>112.4</ele>
        <time>2022-03-19T13:31:15.000+01:00</time>
      </trkpt>
      <trkpt lat="48.76847" lon="2.14405">
        <ele>112.6</ele>
        <time>2022-03-19T13:31:20.000+01:00</time>
      </trkpt>
      <trkpt lat="48.76853" lon="2.14387">
        <ele>113.1</ele>
        <time>2022-03-19T13:31:30.000+01:00</time>
      </trkpt>
      <trkpt lat="48.76854" lon="2.14371">
        <ele>110.1</ele>
        <time>2022-03-19T13:31:40.000+01:00</time>
      </trkpt>
      <trkpt lat="48.76858" lon="2.14362">
        <ele>111.5</ele>
        <time>2022-03-19T13:32:00.000+01:00</time>
      </trkpt>
      <trkpt lat="48.76856" lon="2.14365">
        <ele>110.1</ele>
        <time>2022-03-19T13:32:45.000+01:00</time>
      </trkpt>
      <trkpt lat="48.76868" lon="2.14359">
        <ele>106</ele>
        <time>2022-03-19T13:33:38.000+01:00</time>
      </trkpt>
      <trkpt lat="48.76871" lon="2.14351">
        <ele>115.8</ele>
        <time>2022-03-19T13:33:50.000+01:00</time>
      </trkpt>
      <trkpt lat="48.76866" lon="2.14364">
        <ele>94.7</ele>
        <time>2022-03-19T13:34:10.000+01:00</time>
      </trkpt>
      <trkpt lat="48.76863" lon="2.14366">
        <ele>102</ele>
        <time>2022-03-19T13:34:25.000+01:00</time>
      </trkpt>
      <trkpt lat="48.76863" lon="2.14382">
        <ele>101.9</ele>
        <time>2022-03-19T13:34:48.000+01:00</time>
      </trkpt>
      <trkpt lat="48.76881" lon="2.14397">
        <ele>101</ele>
        <time>2022-03-19T13:35:03.000+01:00</time>
      </trkpt>
      <trkpt lat="48.76885" lon="2.14411">
        <ele>100.3</ele>
        <time>2022-03-19T13:35:15.000+01:00</time>
      </trkpt>
      <trkpt lat="48.76911" lon="2.14412">
        <ele>86.8</ele>
        <time>2022-03-19T13:35:25.000+01:00</time>
      </trkpt>
      <trkpt lat="48.76908" lon="2.14431">
        <ele>104.6</ele>
        <time>2022-03-19T13:35:35.000+01:00</time>
      </trkpt>
      <trkpt lat="48.76914" lon="2.14445">
        <ele>94.5</ele>
        <time>2022-03-19T13:35:45.000+01:00</time>
      </trkpt>
      <trkpt lat="48.7693" lon="2.14452">
        <ele>92.6</ele>
        <time>2022-03-19T13:35:55.000+01:00</time>
      </trkpt>
      <trkpt lat="48.7694" lon="2.14465">
        <ele>94.5</ele>
        <time>2022-03-19T13:36:05.000+01:00</time>
      </trkpt>
      <trkpt lat="48.76949" lon="2.14474">
        <ele>96.4</ele>
        <time>2022-03-19T13:36:15.000+01:00</time>
      </trkpt>
      <trkpt lat="48.7696" lon="2.14491">
        <ele>97.1</ele>
        <time>2022-03-19T13:36:25.000+01:00</time>
      </trkpt>
      <trkpt lat="48.76967" lon="2.14502">
        <ele>97</ele>
        <time>2022-03-19T13:36:32.000+01:00</time>
      </trkpt>
      <trkpt lat="48.76978" lon="2.14507">
        <ele>91.7</ele>
        <time>2022-03-19T13:36:45.000+01:00</time>
      </trkpt>
      <trkpt lat="48.76988" lon="2.14513">
        <ele>85</ele>
        <time>2022-03-19T13:36:50.000+01:00</time>
      </trkpt>
      <trkpt lat="48.76998" lon="2.14519">
        <ele>84.2</ele>
        <time>2022-03-19T13:37:00.000+01:00</time>
      </trkpt>
    </trkseg>
  </trk>
</gpx>